UAE324 OMDB-RKSI
Flight info
| Callsign | UAE324 |
|---|---|
| Flight time | 8h 18m |
| Altitude | 37000 |
| Route | IVURO M428 TARBO Y220 ITLOB B505 PG G325 PURPA/K0891S1130 W112 TUSLI W187 IBANO B215 NUKTI W66 DKO W69 HUR B339 LADIX W34 VAPGU W100 ORAVA W201 UNSEK A326 DONVO G597 AGAVO/N0467F370 Y644 REBIT REBIT1Y |
| Aircraft | A388/J-SADE2E3FGHIJ3J4J5M1RWXY/LB1D1 |
Departure
| Time | 2026-04-23 21:53 |
|---|---|
| Airport | Dubai International Airport (OMDB) |
Arrival
| Time | 2026-04-24 06:12 |
|---|---|
| Airport | Incheon International Airport (RKSI) |
| Time | Latitude | Longitude | Altitude | Speed | Heading |
|---|---|---|---|---|---|
| 2026-04-23 21:30 | 25.24436 | 55.37222 | 29 ft | 0 kts | 211° |
| 2026-04-23 21:42 | 25.24448 | 55.37230 | 32 ft | 3 kts | 211° |
| 2026-04-23 21:42 | 25.24466 | 55.37242 | 28 ft | 3 kts | 211° |
| 2026-04-23 21:43 | 25.24481 | 55.37252 | 32 ft | 3 kts | 209° |
| 2026-04-23 21:43 | 25.24499 | 55.37260 | 32 ft | 3 kts | 181° |
| 2026-04-23 21:43 | 25.24517 | 55.37257 | 32 ft | 3 kts | 144° |
| 2026-04-23 21:43 | 25.24531 | 55.37242 | 32 ft | 3 kts | 123° |
| 2026-04-23 21:44 | 25.24542 | 55.37223 | 32 ft | 3 kts | 122° |
| 2026-04-23 21:44 | 25.24552 | 55.37204 | 32 ft | 2 kts | 122° |
| 2026-04-23 21:44 | 25.24553 | 55.37202 | 32 ft | 0 kts | 122° |
| 2026-04-23 21:48 | 25.24547 | 55.37213 | 32 ft | 4 kts | 122° |
| 2026-04-23 21:48 | 25.24528 | 55.37248 | 32 ft | 7 kts | 122° |
| 2026-04-23 21:48 | 25.24499 | 55.37299 | 30 ft | 9 kts | 122° |
| 2026-04-23 21:49 | 25.24463 | 55.37364 | 31 ft | 11 kts | 122° |
| 2026-04-23 21:49 | 25.24420 | 55.37440 | 29 ft | 12 kts | 122° |
| 2026-04-23 21:49 | 25.24372 | 55.37525 | 29 ft | 14 kts | 122° |
| 2026-04-23 21:49 | 25.24320 | 55.37618 | 29 ft | 15 kts | 122° |
| 2026-04-23 21:50 | 25.24271 | 55.37705 | 30 ft | 10 kts | 121° |
| 2026-04-23 21:50 | 25.24269 | 55.37769 | 26 ft | 8 kts | 57° |
| 2026-04-23 21:50 | 25.24316 | 55.37813 | 26 ft | 10 kts | 33° |
| 2026-04-23 21:50 | 25.24383 | 55.37862 | 27 ft | 12 kts | 33° |
| 2026-04-23 21:51 | 25.24455 | 55.37915 | 29 ft | 13 kts | 33° |
| 2026-04-23 21:51 | 25.24535 | 55.37974 | 29 ft | 15 kts | 33° |
| 2026-04-23 21:51 | 25.24631 | 55.38045 | 28 ft | 17 kts | 33° |
| 2026-04-23 21:51 | 25.24714 | 55.38106 | 31 ft | 9 kts | 28° |
| 2026-04-23 21:52 | 25.24759 | 55.38102 | 31 ft | 6 kts | 317° |
| 2026-04-23 21:52 | 25.24793 | 55.38050 | 30 ft | 16 kts | 301° |
| 2026-04-23 21:52 | 25.24972 | 55.37731 | 30 ft | 83 kts | 301° |
| 2026-04-23 21:52 | 25.25385 | 55.36995 | 30 ft | 139 kts | 301° |
| 2026-04-23 21:53 | 25.25954 | 55.35961 | 30 ft | 172 kts | 302° |
| 2026-04-23 21:53 | 25.26592 | 55.34787 | 296 ft | 179 kts | 302° |
| 2026-04-23 21:53 | 25.27215 | 55.33614 | 741 ft | 178 kts | 302° |
| 2026-04-23 21:53 | 25.27847 | 55.32417 | 1079 ft | 183 kts | 302° |
| 2026-04-23 21:54 | 25.28522 | 55.31218 | 1402 ft | 189 kts | 304° |
| 2026-04-23 21:54 | 25.29277 | 55.30020 | 1703 ft | 193 kts | 319° |
| 2026-04-23 21:54 | 25.30456 | 55.29351 | 1897 ft | 193 kts | 357° |
| 2026-04-23 21:54 | 25.31790 | 55.29389 | 2098 ft | 196 kts | 6° |
| 2026-04-23 21:55 | 25.33179 | 55.29496 | 2249 ft | 203 kts | 5° |
| 2026-04-23 21:55 | 25.34598 | 55.29574 | 2472 ft | 205 kts | 4° |
| 2026-04-23 21:55 | 25.36032 | 55.29627 | 2636 ft | 210 kts | 3° |
| 2026-04-23 21:55 | 25.37508 | 55.29668 | 2690 ft | 219 kts | 2° |
| 2026-04-23 21:56 | 25.39070 | 55.29758 | 2743 ft | 234 kts | 13° |
| 2026-04-23 21:56 | 25.40539 | 55.30581 | 2988 ft | 244 kts | 45° |
| 2026-04-23 21:56 | 25.41644 | 55.32032 | 3341 ft | 254 kts | 52° |
| 2026-04-23 21:56 | 25.42763 | 55.33638 | 3559 ft | 271 kts | 52° |
| 2026-04-23 21:57 | 25.43927 | 55.35295 | 4051 ft | 274 kts | 52° |
| 2026-04-23 21:57 | 25.45118 | 55.36957 | 4584 ft | 278 kts | 51° |
| 2026-04-23 21:57 | 25.46338 | 55.38635 | 5079 ft | 282 kts | 50° |
| 2026-04-23 21:57 | 25.47579 | 55.40333 | 5585 ft | 286 kts | 50° |
| 2026-04-23 21:58 | 25.48843 | 55.42062 | 6058 ft | 292 kts | 50° |
| 2026-04-23 21:58 | 25.50105 | 55.43845 | 6539 ft | 296 kts | 51° |
| 2026-04-23 21:58 | 25.51344 | 55.45636 | 7055 ft | 298 kts | 52° |
| 2026-04-23 21:58 | 25.52557 | 55.47509 | 7551 ft | 302 kts | 62° |
| 2026-04-23 21:59 | 25.53148 | 55.49730 | 8061 ft | 303 kts | 88° |
| 2026-04-23 21:59 | 25.52863 | 55.52020 | 8595 ft | 302 kts | 114° |
| 2026-04-23 21:59 | 25.51854 | 55.54036 | 9141 ft | 299 kts | 127° |
| 2026-04-23 22:00 | 25.49372 | 55.57777 | 10118 ft | 309 kts | 128° |
| 2026-04-23 22:00 | 25.48113 | 55.59788 | 10256 ft | 326 kts | 127° |
| 2026-04-23 22:00 | 25.46842 | 55.61931 | 10391 ft | 341 kts | 126° |
| 2026-04-23 22:00 | 25.45555 | 55.64168 | 10580 ft | 354 kts | 125° |
| 2026-04-23 22:01 | 25.44236 | 55.66486 | 11041 ft | 357 kts | 124° |
| 2026-04-23 22:01 | 25.43020 | 55.68907 | 11501 ft | 363 kts | 117° |
| 2026-04-23 22:01 | 25.42144 | 55.71546 | 11988 ft | 368 kts | 107° |
| 2026-04-23 22:01 | 25.41562 | 55.74319 | 12448 ft | 373 kts | 104° |
| 2026-04-23 22:02 | 25.40952 | 55.77117 | 12931 ft | 375 kts | 108° |
| 2026-04-23 22:02 | 25.40257 | 55.79906 | 13411 ft | 378 kts | 107° |
| 2026-04-23 22:02 | 25.39558 | 55.82725 | 13881 ft | 381 kts | 107° |
| 2026-04-23 22:02 | 25.38857 | 55.85528 | 14317 ft | 385 kts | 107° |
| 2026-04-23 22:03 | 25.38137 | 55.88391 | 14754 ft | 388 kts | 107° |
| 2026-04-23 22:03 | 25.37407 | 55.91274 | 15199 ft | 391 kts | 107° |
| 2026-04-23 22:03 | 25.36672 | 55.94172 | 15634 ft | 394 kts | 107° |
| 2026-04-23 22:03 | 25.35928 | 55.97100 | 16064 ft | 397 kts | 107° |
| 2026-04-23 22:04 | 25.35177 | 56.00052 | 16494 ft | 400 kts | 107° |
| 2026-04-23 22:04 | 25.34420 | 56.03026 | 16916 ft | 403 kts | 107° |
| 2026-04-23 22:04 | 25.33657 | 56.06023 | 17346 ft | 407 kts | 107° |
| 2026-04-23 22:04 | 25.32887 | 56.09043 | 17774 ft | 410 kts | 107° |
| 2026-04-23 22:05 | 25.32120 | 56.12048 | 18160 ft | 413 kts | 106° |
| 2026-04-23 22:05 | 25.31337 | 56.15112 | 18528 ft | 415 kts | 106° |
| 2026-04-23 22:05 | 25.30551 | 56.18185 | 18922 ft | 416 kts | 107° |
| 2026-04-23 22:05 | 25.29763 | 56.21263 | 19292 ft | 418 kts | 107° |
| 2026-04-23 22:06 | 25.28968 | 56.24368 | 19651 ft | 420 kts | 107° |
| 2026-04-23 22:06 | 25.28169 | 56.27482 | 20011 ft | 422 kts | 107° |
| 2026-04-23 22:06 | 25.27367 | 56.30609 | 20396 ft | 424 kts | 107° |
| 2026-04-23 22:06 | 25.26559 | 56.33753 | 20718 ft | 427 kts | 107° |
| 2026-04-23 22:07 | 25.25736 | 56.36865 | 21058 ft | 428 kts | 110° |
| 2026-04-23 22:07 | 25.24696 | 56.39988 | 21513 ft | 426 kts | 111° |
| 2026-04-23 22:07 | 25.23687 | 56.43021 | 21861 ft | 429 kts | 111° |
| 2026-04-23 22:07 | 25.22664 | 56.46121 | 22206 ft | 431 kts | 111° |
| 2026-04-23 22:08 | 25.21638 | 56.49235 | 22565 ft | 432 kts | 111° |
| 2026-04-23 22:08 | 25.20605 | 56.52363 | 22918 ft | 434 kts | 111° |
| 2026-04-23 22:08 | 25.19566 | 56.55501 | 23265 ft | 436 kts | 111° |
| 2026-04-23 22:08 | 25.18524 | 56.58645 | 23588 ft | 437 kts | 111° |
| 2026-04-23 22:09 | 25.17404 | 56.61777 | 23858 ft | 439 kts | 114° |
| 2026-04-23 22:09 | 25.16226 | 56.64850 | 24109 ft | 441 kts | 114° |
| 2026-04-23 22:09 | 25.15020 | 56.67968 | 24380 ft | 444 kts | 114° |
| 2026-04-23 22:09 | 25.13812 | 56.71113 | 24643 ft | 446 kts | 114° |
| 2026-04-23 22:10 | 25.12607 | 56.74278 | 24915 ft | 449 kts | 114° |
| 2026-04-23 22:10 | 25.11400 | 56.77462 | 25191 ft | 451 kts | 114° |
| 2026-04-23 22:10 | 25.10189 | 56.80665 | 25485 ft | 453 kts | 114° |
| 2026-04-23 22:10 | 25.08972 | 56.83883 | 25780 ft | 456 kts | 114° |
| 2026-04-23 22:11 | 25.07763 | 56.87078 | 26027 ft | 459 kts | 114° |
| 2026-04-23 22:11 | 25.06528 | 56.90339 | 26332 ft | 462 kts | 113° |
| 2026-04-23 22:11 | 25.05286 | 56.93617 | 26654 ft | 464 kts | 113° |
| 2026-04-23 22:11 | 25.04038 | 56.96906 | 26966 ft | 467 kts | 113° |
| 2026-04-23 22:12 | 25.02779 | 57.00221 | 27296 ft | 470 kts | 113° |
| 2026-04-23 22:12 | 25.01512 | 57.03556 | 27625 ft | 473 kts | 113° |
| 2026-04-23 22:12 | 25.00236 | 57.06910 | 27949 ft | 476 kts | 113° |
| 2026-04-23 22:12 | 24.98952 | 57.10284 | 28277 ft | 479 kts | 113° |
| 2026-04-23 22:13 | 24.97660 | 57.13678 | 28671 ft | 480 kts | 113° |
| 2026-04-23 22:13 | 24.96382 | 57.17029 | 29042 ft | 482 kts | 113° |
| 2026-04-23 22:13 | 24.95081 | 57.20440 | 29356 ft | 485 kts | 113° |
| 2026-04-23 22:13 | 24.93767 | 57.23879 | 29638 ft | 489 kts | 113° |
| 2026-04-23 22:14 | 24.92441 | 57.27349 | 29930 ft | 493 kts | 113° |
| 2026-04-23 22:14 | 24.91108 | 57.30836 | 30250 ft | 495 kts | 113° |
| 2026-04-23 22:14 | 24.89768 | 57.34336 | 30559 ft | 497 kts | 113° |
| 2026-04-23 22:14 | 24.88422 | 57.37851 | 30864 ft | 499 kts | 113° |
| 2026-04-23 22:15 | 24.87070 | 57.41377 | 31238 ft | 500 kts | 113° |
| 2026-04-23 22:15 | 24.85733 | 57.44862 | 31513 ft | 502 kts | 113° |
| 2026-04-23 22:15 | 24.84368 | 57.48414 | 31775 ft | 505 kts | 113° |
| 2026-04-23 22:15 | 24.82995 | 57.51987 | 32057 ft | 508 kts | 113° |
| 2026-04-23 22:16 | 24.81614 | 57.55576 | 32329 ft | 510 kts | 113° |
| 2026-04-23 22:16 | 24.80226 | 57.59183 | 32595 ft | 513 kts | 113° |
| 2026-04-23 22:16 | 24.78829 | 57.62807 | 32880 ft | 516 kts | 114° |
| 2026-04-23 22:16 | 24.77424 | 57.66450 | 33124 ft | 519 kts | 113° |
| 2026-04-23 22:17 | 24.76029 | 57.70064 | 33394 ft | 521 kts | 113° |
| 2026-04-23 22:17 | 24.74653 | 57.73763 | 33637 ft | 524 kts | 109° |
| 2026-04-23 22:17 | 24.73663 | 57.77630 | 33892 ft | 527 kts | 101° |
| 2026-04-23 22:17 | 24.73139 | 57.81624 | 34101 ft | 529 kts | 93° |
| 2026-04-23 22:18 | 24.73059 | 57.85665 | 34288 ft | 531 kts | 88° |
| 2026-04-23 22:18 | 24.73073 | 57.89739 | 34497 ft | 534 kts | 88° |
| 2026-04-23 22:18 | 24.73069 | 57.93832 | 34772 ft | 535 kts | 89° |
| 2026-04-23 22:18 | 24.73058 | 57.97928 | 35092 ft | 536 kts | 88° |
| 2026-04-23 22:19 | 24.73045 | 58.01974 | 35350 ft | 537 kts | 88° |
| 2026-04-23 22:19 | 24.73033 | 58.06084 | 35616 ft | 538 kts | 88° |
| 2026-04-23 22:19 | 24.73020 | 58.10202 | 35887 ft | 539 kts | 88° |
| 2026-04-23 22:19 | 24.73006 | 58.14327 | 36151 ft | 540 kts | 88° |
| 2026-04-23 22:20 | 24.72992 | 58.18461 | 36410 ft | 541 kts | 88° |
| 2026-04-23 22:20 | 24.72976 | 58.22592 | 36683 ft | 541 kts | 88° |
| 2026-04-23 22:20 | 24.72959 | 58.26740 | 36830 ft | 545 kts | 88° |
| 2026-04-23 22:20 | 24.72942 | 58.30934 | 36813 ft | 548 kts | 88° |
| 2026-04-23 22:21 | 24.72902 | 58.39218 | 36813 ft | 545 kts | 88° |
| 2026-04-23 22:21 | 24.72858 | 58.47565 | 36812 ft | 546 kts | 88° |
| 2026-04-23 22:22 | 24.72809 | 58.55887 | 36816 ft | 544 kts | 88° |
| 2026-04-23 22:22 | 24.72756 | 58.64211 | 36815 ft | 544 kts | 88° |
| 2026-04-23 22:23 | 24.72698 | 58.72483 | 36812 ft | 545 kts | 88° |
| 2026-04-23 22:23 | 24.72636 | 58.80815 | 36813 ft | 545 kts | 88° |
| 2026-04-23 22:24 | 24.72569 | 58.89146 | 36814 ft | 545 kts | 88° |
| 2026-04-23 22:24 | 24.72497 | 58.97480 | 36814 ft | 545 kts | 88° |
| 2026-04-23 22:25 | 24.72421 | 59.05756 | 36843 ft | 544 kts | 88° |
| 2026-04-23 22:25 | 24.72168 | 59.14027 | 36813 ft | 538 kts | 94° |
| 2026-04-23 22:26 | 24.71415 | 59.22197 | 36812 ft | 537 kts | 94° |
| 2026-04-23 22:26 | 24.70694 | 59.30385 | 36813 ft | 538 kts | 94° |
| 2026-04-23 22:27 | 24.69966 | 59.38513 | 36812 ft | 537 kts | 94° |
| 2026-04-23 22:27 | 24.69227 | 59.46690 | 36813 ft | 538 kts | 94° |
| 2026-04-23 22:28 | 24.68483 | 59.54869 | 36820 ft | 537 kts | 94° |
| 2026-04-23 22:28 | 24.67734 | 59.63038 | 36812 ft | 537 kts | 93° |
| 2026-04-23 22:29 | 24.66987 | 59.71150 | 36812 ft | 537 kts | 94° |
| 2026-04-23 22:29 | 24.66230 | 59.79311 | 36809 ft | 536 kts | 94° |
| 2026-04-23 22:30 | 24.65470 | 59.87469 | 36810 ft | 536 kts | 94° |
| 2026-04-23 22:30 | 24.64705 | 59.95626 | 36814 ft | 536 kts | 94° |
| 2026-04-23 22:31 | 24.63940 | 60.03727 | 36811 ft | 536 kts | 94° |
| 2026-04-23 22:31 | 24.63167 | 60.11882 | 36810 ft | 536 kts | 94° |
| 2026-04-23 22:32 | 24.62389 | 60.20026 | 36811 ft | 536 kts | 94° |
| 2026-04-23 22:32 | 24.61607 | 60.28174 | 36813 ft | 536 kts | 94° |
| 2026-04-23 22:33 | 24.60826 | 60.36265 | 36809 ft | 536 kts | 94° |
| 2026-04-23 22:33 | 24.60036 | 60.44403 | 36812 ft | 535 kts | 94° |
| 2026-04-23 22:34 | 24.59242 | 60.52526 | 36821 ft | 534 kts | 94° |
| 2026-04-23 22:34 | 24.58447 | 60.60642 | 36807 ft | 534 kts | 93° |
| 2026-04-23 22:35 | 24.58276 | 60.68697 | 36802 ft | 530 kts | 86° |
| 2026-04-23 22:35 | 24.58292 | 60.76797 | 36802 ft | 530 kts | 87° |
| 2026-04-23 22:36 | 24.58291 | 60.84890 | 36800 ft | 530 kts | 87° |
| 2026-04-23 22:36 | 24.58285 | 60.92988 | 36803 ft | 530 kts | 87° |
| 2026-04-23 22:37 | 24.58276 | 61.01032 | 36802 ft | 530 kts | 87° |
| 2026-04-23 22:37 | 24.58263 | 61.09131 | 36810 ft | 530 kts | 87° |
| 2026-04-23 22:38 | 24.58245 | 61.17228 | 36810 ft | 530 kts | 87° |
| 2026-04-23 22:38 | 24.58223 | 61.25314 | 36808 ft | 530 kts | 87° |
| 2026-04-23 22:39 | 24.58857 | 61.33265 | 36805 ft | 523 kts | 75° |
| 2026-04-23 22:39 | 24.60886 | 61.40868 | 36808 ft | 515 kts | 63° |
| 2026-04-23 22:40 | 24.63536 | 61.48184 | 36806 ft | 515 kts | 64° |
| 2026-04-23 22:41 | 24.67454 | 61.59178 | 36804 ft | 515 kts | 64° |
| 2026-04-23 22:41 | 24.70050 | 61.66465 | 36803 ft | 515 kts | 64° |
| 2026-04-23 22:42 | 24.72660 | 61.73800 | 36800 ft | 515 kts | 64° |
| 2026-04-23 22:42 | 24.75264 | 61.81132 | 36800 ft | 515 kts | 64° |
| 2026-04-23 22:43 | 24.77868 | 61.88475 | 36800 ft | 515 kts | 64° |
| 2026-04-23 22:43 | 24.80451 | 61.95772 | 36807 ft | 515 kts | 64° |
| 2026-04-23 22:44 | 24.83047 | 62.03120 | 36806 ft | 515 kts | 64° |
| 2026-04-23 22:44 | 24.85636 | 62.10462 | 36804 ft | 515 kts | 64° |
| 2026-04-23 22:45 | 24.88225 | 62.17817 | 36803 ft | 515 kts | 64° |
| 2026-04-23 22:45 | 24.90792 | 62.25119 | 36807 ft | 514 kts | 65° |
| 2026-04-23 22:46 | 24.93369 | 62.32468 | 36805 ft | 514 kts | 65° |
| 2026-04-23 22:46 | 24.95938 | 62.39806 | 36802 ft | 514 kts | 65° |
| 2026-04-23 22:47 | 24.98505 | 62.47152 | 36800 ft | 513 kts | 65° |
| 2026-04-23 22:47 | 25.01050 | 62.54447 | 36804 ft | 513 kts | 65° |
| 2026-04-23 22:48 | 25.03607 | 62.61790 | 36804 ft | 513 kts | 65° |
| 2026-04-23 22:48 | 25.06159 | 62.69131 | 36801 ft | 512 kts | 65° |
| 2026-04-23 22:49 | 25.08706 | 62.76472 | 36801 ft | 512 kts | 65° |
| 2026-04-23 22:49 | 25.11232 | 62.83766 | 36789 ft | 513 kts | 65° |
| 2026-04-23 22:50 | 25.13769 | 62.91104 | 36805 ft | 512 kts | 65° |
| 2026-04-23 22:50 | 25.16304 | 62.98451 | 36804 ft | 512 kts | 65° |
| 2026-04-23 22:51 | 25.18835 | 63.05800 | 36803 ft | 512 kts | 65° |
| 2026-04-23 22:51 | 25.21344 | 63.13100 | 36808 ft | 512 kts | 65° |
| 2026-04-23 22:52 | 25.23865 | 63.20447 | 36817 ft | 511 kts | 65° |
| 2026-04-23 22:52 | 25.26443 | 63.27756 | 36810 ft | 508 kts | 59° |
| 2026-04-23 22:53 | 25.30477 | 63.33976 | 36805 ft | 494 kts | 39° |
| 2026-04-23 22:53 | 25.36010 | 63.38232 | 36806 ft | 481 kts | 20° |
| 2026-04-23 22:54 | 25.42116 | 63.41081 | 36807 ft | 480 kts | 19° |
| 2026-04-23 22:54 | 25.48263 | 63.43971 | 36813 ft | 480 kts | 19° |
| 2026-04-23 22:55 | 25.54416 | 63.46863 | 36821 ft | 481 kts | 19° |
| 2026-04-23 22:55 | 25.60585 | 63.49762 | 36831 ft | 482 kts | 19° |
| 2026-04-23 22:56 | 25.66715 | 63.52645 | 36836 ft | 482 kts | 19° |
| 2026-04-23 22:56 | 25.72881 | 63.55548 | 36836 ft | 482 kts | 19° |
| 2026-04-23 22:57 | 25.79052 | 63.58456 | 36840 ft | 482 kts | 19° |
| 2026-04-23 22:57 | 25.85218 | 63.61366 | 36837 ft | 481 kts | 19° |
| 2026-04-23 22:58 | 25.91336 | 63.64256 | 36849 ft | 481 kts | 19° |
| 2026-04-23 22:58 | 25.97489 | 63.67167 | 36843 ft | 480 kts | 19° |
| 2026-04-23 22:59 | 26.03638 | 63.70075 | 36848 ft | 480 kts | 19° |
| 2026-04-23 22:59 | 26.09789 | 63.72976 | 36845 ft | 480 kts | 19° |
| 2026-04-23 23:00 | 26.15885 | 63.75857 | 36838 ft | 480 kts | 19° |
| 2026-04-23 23:00 | 26.22043 | 63.78770 | 36848 ft | 481 kts | 19° |
| 2026-04-23 23:01 | 26.28213 | 63.81693 | 36858 ft | 482 kts | 19° |
| 2026-04-23 23:01 | 26.34400 | 63.84627 | 36869 ft | 484 kts | 19° |
| 2026-04-23 23:02 | 26.40593 | 63.87567 | 36879 ft | 485 kts | 19° |
| 2026-04-23 23:02 | 26.46761 | 63.90500 | 36886 ft | 485 kts | 19° |
| 2026-04-23 23:03 | 26.52979 | 63.93459 | 36893 ft | 486 kts | 19° |
| 2026-04-23 23:03 | 26.59196 | 63.96422 | 36894 ft | 486 kts | 19° |
| 2026-04-23 23:04 | 26.65371 | 63.99368 | 36904 ft | 486 kts | 19° |
| 2026-04-23 23:04 | 26.71582 | 64.02336 | 36906 ft | 485 kts | 19° |
| 2026-04-23 23:05 | 26.77789 | 64.05304 | 36895 ft | 485 kts | 19° |
| 2026-04-23 23:05 | 26.83991 | 64.08273 | 36889 ft | 485 kts | 19° |
| 2026-04-23 23:06 | 26.90135 | 64.11246 | 36899 ft | 486 kts | 22° |
| 2026-04-23 23:06 | 26.95956 | 64.15175 | 36900 ft | 492 kts | 33° |
| 2026-04-23 23:07 | 27.01074 | 64.20329 | 36896 ft | 497 kts | 42° |
| 2026-04-23 23:07 | 27.05911 | 64.25870 | 36872 ft | 498 kts | 41° |
| 2026-04-23 23:08 | 27.10774 | 64.31415 | 36891 ft | 499 kts | 41° |
| 2026-04-23 23:08 | 27.15603 | 64.36949 | 36913 ft | 500 kts | 41° |
| 2026-04-23 23:09 | 27.20465 | 64.42535 | 36920 ft | 500 kts | 42° |
| 2026-04-23 23:09 | 27.25326 | 64.48128 | 36914 ft | 500 kts | 42° |
| 2026-04-23 23:10 | 27.29362 | 64.52778 | 36918 ft | 500 kts | 42° |
| 2026-04-23 23:10 | 27.35000 | 64.59281 | 36917 ft | 499 kts | 42° |
| 2026-04-23 23:11 | 27.39847 | 64.64880 | 36915 ft | 499 kts | 42° |
| 2026-04-23 23:11 | 27.44693 | 64.70484 | 36919 ft | 499 kts | 42° |
| 2026-04-23 23:12 | 27.49538 | 64.76096 | 36918 ft | 499 kts | 42° |
| 2026-04-23 23:12 | 27.54342 | 64.81667 | 36867 ft | 499 kts | 42° |
| 2026-04-23 23:13 | 27.59180 | 64.87285 | 36872 ft | 499 kts | 42° |
| 2026-04-23 23:13 | 27.64015 | 64.92908 | 36870 ft | 499 kts | 42° |
| 2026-04-23 23:14 | 27.68848 | 64.98535 | 36886 ft | 499 kts | 42° |
| 2026-04-23 23:14 | 27.73648 | 65.04131 | 36897 ft | 499 kts | 42° |
| 2026-04-23 23:15 | 27.78477 | 65.09771 | 36895 ft | 499 kts | 42° |
| 2026-04-23 23:15 | 27.83304 | 65.15415 | 36860 ft | 499 kts | 42° |
| 2026-04-23 23:16 | 27.88121 | 65.21055 | 36854 ft | 499 kts | 42° |
| 2026-04-23 23:16 | 27.92910 | 65.26669 | 36866 ft | 499 kts | 42° |
| 2026-04-23 23:17 | 27.97730 | 65.32326 | 36888 ft | 499 kts | 43° |
| 2026-04-23 23:17 | 28.02543 | 65.37985 | 36896 ft | 499 kts | 43° |
| 2026-04-23 23:18 | 28.07349 | 65.43642 | 36868 ft | 498 kts | 43° |
| 2026-04-23 23:18 | 28.12111 | 65.49258 | 36868 ft | 498 kts | 42° |
| 2026-04-23 23:19 | 28.16912 | 65.54925 | 36871 ft | 498 kts | 42° |
| 2026-04-23 23:19 | 28.21713 | 65.60599 | 36873 ft | 499 kts | 43° |
| 2026-04-23 23:20 | 28.26514 | 65.66282 | 36888 ft | 499 kts | 43° |
| 2026-04-23 23:20 | 28.31284 | 65.71936 | 36891 ft | 499 kts | 43° |
| 2026-04-23 23:21 | 28.36085 | 65.77636 | 36922 ft | 500 kts | 43° |
| 2026-04-23 23:21 | 28.40887 | 65.83344 | 36918 ft | 500 kts | 43° |
| 2026-04-23 23:22 | 28.45689 | 65.89060 | 36919 ft | 501 kts | 43° |
| 2026-04-23 23:22 | 28.50469 | 65.94757 | 36920 ft | 501 kts | 43° |
| 2026-04-23 23:23 | 28.55281 | 66.00500 | 36949 ft | 502 kts | 43° |
| 2026-04-23 23:23 | 28.60103 | 66.06266 | 36952 ft | 503 kts | 43° |
| 2026-04-23 23:24 | 28.64901 | 66.12009 | 36952 ft | 504 kts | 43° |
| 2026-04-23 23:24 | 28.69735 | 66.17803 | 36980 ft | 505 kts | 43° |
| 2026-04-23 23:25 | 28.74570 | 66.23608 | 36985 ft | 505 kts | 43° |
| 2026-04-23 23:25 | 28.79403 | 66.29418 | 37017 ft | 505 kts | 44° |
| 2026-04-23 23:26 | 28.84230 | 66.35231 | 37005 ft | 505 kts | 44° |
| 2026-04-23 23:26 | 28.89030 | 66.41019 | 37007 ft | 505 kts | 44° |
| 2026-04-23 23:27 | 28.93846 | 66.46834 | 37005 ft | 504 kts | 44° |
| 2026-04-23 23:27 | 28.98662 | 66.52657 | 37001 ft | 504 kts | 44° |
| 2026-04-23 23:28 | 29.03440 | 66.58441 | 37009 ft | 503 kts | 44° |
| 2026-04-23 23:28 | 29.08249 | 66.64252 | 37007 ft | 503 kts | 44° |
| 2026-04-23 23:29 | 29.13047 | 66.70046 | 36999 ft | 502 kts | 44° |
| 2026-04-23 23:29 | 29.17841 | 66.75846 | 36996 ft | 501 kts | 44° |
| 2026-04-23 23:30 | 29.21821 | 66.80668 | 36984 ft | 501 kts | 44° |
| 2026-04-23 23:30 | 29.27381 | 66.87417 | 36984 ft | 501 kts | 44° |
| 2026-04-23 23:31 | 29.32160 | 66.93226 | 36973 ft | 501 kts | 44° |
| 2026-04-23 23:31 | 29.36124 | 66.98052 | 36967 ft | 500 kts | 44° |
| 2026-04-23 23:32 | 29.40891 | 67.03861 | 36929 ft | 500 kts | 44° |
| 2026-04-23 23:32 | 29.46426 | 67.10617 | 36934 ft | 500 kts | 44° |
| 2026-04-23 23:33 | 29.50420 | 67.15499 | 36896 ft | 501 kts | 44° |
| 2026-04-23 23:33 | 29.55160 | 67.21302 | 36892 ft | 502 kts | 44° |
| 2026-04-23 23:34 | 29.59930 | 67.27151 | 36893 ft | 501 kts | 44° |
| 2026-04-23 23:34 | 29.65472 | 67.33955 | 36863 ft | 502 kts | 44° |
| 2026-04-23 23:35 | 29.70243 | 67.39824 | 36869 ft | 502 kts | 44° |
| 2026-04-23 23:35 | 29.74207 | 67.44704 | 36850 ft | 503 kts | 44° |
| 2026-04-23 23:36 | 29.78989 | 67.50579 | 36852 ft | 503 kts | 44° |
| 2026-04-23 23:36 | 29.83776 | 67.56458 | 36814 ft | 504 kts | 44° |
| 2026-04-23 23:37 | 29.88569 | 67.62359 | 36847 ft | 505 kts | 44° |
| 2026-04-23 23:37 | 29.93335 | 67.68235 | 36847 ft | 505 kts | 44° |
| 2026-04-23 23:38 | 29.98132 | 67.74157 | 36841 ft | 506 kts | 44° |
| 2026-04-23 23:38 | 30.02935 | 67.80097 | 36877 ft | 507 kts | 44° |
| 2026-04-23 23:39 | 30.07739 | 67.86047 | 36892 ft | 507 kts | 44° |
| 2026-04-23 23:39 | 30.12521 | 67.91949 | 36917 ft | 506 kts | 44° |
| 2026-04-23 23:40 | 30.17351 | 67.97870 | 36934 ft | 506 kts | 44° |
| 2026-04-23 23:40 | 30.22186 | 68.03808 | 36937 ft | 507 kts | 44° |
| 2026-04-23 23:41 | 30.27016 | 68.09759 | 36938 ft | 507 kts | 44° |
| 2026-04-23 23:41 | 30.31805 | 68.15669 | 36964 ft | 507 kts | 44° |
| 2026-04-23 23:42 | 30.36630 | 68.21626 | 36952 ft | 507 kts | 44° |
| 2026-04-23 23:42 | 30.41455 | 68.27595 | 36952 ft | 507 kts | 44° |
| 2026-04-23 23:43 | 30.46276 | 68.33570 | 36958 ft | 507 kts | 44° |
| 2026-04-23 23:43 | 30.51068 | 68.39517 | 36951 ft | 509 kts | 44° |
| 2026-04-23 23:44 | 30.55903 | 68.45527 | 36962 ft | 510 kts | 44° |
| 2026-04-23 23:44 | 30.60743 | 68.51553 | 36960 ft | 511 kts | 44° |
| 2026-04-23 23:45 | 30.65584 | 68.57586 | 36980 ft | 510 kts | 45° |
| 2026-04-23 23:45 | 30.70415 | 68.63623 | 36977 ft | 510 kts | 45° |
| 2026-04-23 23:46 | 30.75202 | 68.69612 | 36972 ft | 509 kts | 45° |
| 2026-04-23 23:46 | 30.80018 | 68.75646 | 36965 ft | 509 kts | 45° |
| 2026-04-23 23:47 | 30.84829 | 68.81684 | 36940 ft | 509 kts | 45° |
| 2026-04-23 23:47 | 30.89612 | 68.87694 | 36957 ft | 509 kts | 45° |
| 2026-04-23 23:48 | 30.94426 | 68.93754 | 36956 ft | 510 kts | 45° |
| 2026-04-23 23:48 | 30.99239 | 68.99822 | 36958 ft | 510 kts | 45° |
| 2026-04-23 23:49 | 31.06454 | 69.08938 | 36966 ft | 510 kts | 45° |
| 2026-04-23 23:49 | 31.11269 | 69.15032 | 36968 ft | 511 kts | 45° |
| 2026-04-23 23:50 | 31.16052 | 69.21096 | 36989 ft | 511 kts | 45° |
| 2026-04-23 23:50 | 31.20871 | 69.27217 | 36955 ft | 512 kts | 45° |
| 2026-04-23 23:51 | 31.25688 | 69.33345 | 36956 ft | 513 kts | 45° |
| 2026-04-23 23:51 | 31.30513 | 69.39492 | 36955 ft | 513 kts | 45° |
| 2026-04-23 23:52 | 31.35524 | 69.45332 | 36946 ft | 511 kts | 37° |
| 2026-04-23 23:52 | 31.41352 | 69.50023 | 36954 ft | 507 kts | 28° |
| 2026-04-23 23:53 | 31.47408 | 69.54285 | 36972 ft | 508 kts | 29° |
| 2026-04-23 23:53 | 31.53446 | 69.58572 | 36951 ft | 508 kts | 28° |
| 2026-04-23 23:54 | 31.59456 | 69.62830 | 36945 ft | 508 kts | 28° |
| 2026-04-23 23:54 | 31.65505 | 69.67117 | 36932 ft | 508 kts | 28° |
| 2026-04-23 23:55 | 31.71550 | 69.71408 | 36922 ft | 508 kts | 28° |
| 2026-04-23 23:55 | 31.77592 | 69.75703 | 36932 ft | 507 kts | 28° |
| 2026-04-23 23:56 | 31.83589 | 69.79973 | 36876 ft | 508 kts | 28° |
| 2026-04-23 23:56 | 31.89626 | 69.84278 | 36871 ft | 507 kts | 28° |
| 2026-04-23 23:57 | 31.95669 | 69.88593 | 36882 ft | 508 kts | 28° |
| 2026-04-23 23:57 | 32.01675 | 69.92889 | 36885 ft | 508 kts | 28° |
| 2026-04-23 23:58 | 32.07711 | 69.97216 | 36878 ft | 509 kts | 28° |
| 2026-04-23 23:58 | 32.13770 | 70.01564 | 36858 ft | 510 kts | 28° |
| 2026-04-23 23:59 | 32.19824 | 70.05914 | 36855 ft | 510 kts | 28° |
| 2026-04-23 23:59 | 32.25884 | 70.10275 | 36835 ft | 510 kts | 28° |
| 2026-04-24 00:00 | 32.31904 | 70.14617 | 36850 ft | 510 kts | 28° |
| 2026-04-24 00:00 | 32.37970 | 70.18995 | 36855 ft | 511 kts | 28° |
| 2026-04-24 00:01 | 32.44091 | 70.23254 | 36850 ft | 510 kts | 27° |
| 2026-04-24 00:01 | 32.50221 | 70.27485 | 36849 ft | 510 kts | 28° |
| 2026-04-24 00:02 | 32.56299 | 70.31709 | 36855 ft | 509 kts | 28° |
| 2026-04-24 00:02 | 32.62400 | 70.35963 | 36823 ft | 509 kts | 28° |
| 2026-04-24 00:03 | 32.68443 | 70.40357 | 36832 ft | 510 kts | 30° |
| 2026-04-24 00:03 | 32.74384 | 70.44965 | 36820 ft | 510 kts | 30° |
| 2026-04-24 00:04 | 32.80297 | 70.49517 | 36814 ft | 510 kts | 30° |
| 2026-04-24 00:04 | 32.86254 | 70.54077 | 36816 ft | 510 kts | 30° |
| 2026-04-24 00:05 | 32.92227 | 70.58653 | 36816 ft | 511 kts | 30° |
| 2026-04-24 00:05 | 32.98242 | 70.63183 | 36823 ft | 512 kts | 28° |
| 2026-04-24 00:06 | 33.04274 | 70.67606 | 36840 ft | 513 kts | 28° |
| 2026-04-24 00:06 | 33.10344 | 70.72086 | 36856 ft | 513 kts | 29° |
| 2026-04-24 00:07 | 33.16409 | 70.76582 | 36860 ft | 514 kts | 29° |
| 2026-04-24 00:07 | 33.22481 | 70.81095 | 36900 ft | 514 kts | 28° |
| 2026-04-24 00:08 | 33.28518 | 70.85588 | 36883 ft | 515 kts | 28° |
| 2026-04-24 00:08 | 33.34592 | 70.90116 | 36889 ft | 514 kts | 28° |
| 2026-04-24 00:09 | 33.40651 | 70.94640 | 36890 ft | 514 kts | 28° |
| 2026-04-24 00:09 | 33.46708 | 70.99176 | 36912 ft | 513 kts | 30° |
| 2026-04-24 00:10 | 33.52352 | 71.04470 | 36897 ft | 517 kts | 38° |
| 2026-04-24 00:10 | 33.57759 | 71.10059 | 36909 ft | 517 kts | 38° |
| 2026-04-24 00:11 | 33.63211 | 71.15676 | 36885 ft | 516 kts | 38° |
| 2026-04-24 00:11 | 33.68650 | 71.21304 | 36899 ft | 516 kts | 38° |
| 2026-04-24 00:12 | 33.74084 | 71.26943 | 36896 ft | 516 kts | 38° |
| 2026-04-24 00:12 | 33.79478 | 71.32547 | 36859 ft | 516 kts | 38° |
| 2026-04-24 00:13 | 33.84910 | 71.38200 | 36853 ft | 517 kts | 38° |
| 2026-04-24 00:13 | 33.90350 | 71.43872 | 36852 ft | 518 kts | 38° |
| 2026-04-24 00:14 | 33.95795 | 71.49561 | 36856 ft | 518 kts | 38° |
| 2026-04-24 00:14 | 34.00773 | 71.55805 | 36863 ft | 522 kts | 47° |
| 2026-04-24 00:15 | 34.05503 | 71.62435 | 36873 ft | 522 kts | 46° |
| 2026-04-24 00:15 | 34.10254 | 71.69057 | 36874 ft | 522 kts | 46° |
| 2026-04-24 00:16 | 34.14997 | 71.75699 | 36862 ft | 522 kts | 46° |
| 2026-04-24 00:16 | 34.19700 | 71.82306 | 36860 ft | 522 kts | 46° |
| 2026-04-24 00:17 | 34.24424 | 71.88953 | 36852 ft | 522 kts | 46° |
| 2026-04-24 00:17 | 34.29149 | 71.95616 | 36850 ft | 521 kts | 46° |
| 2026-04-24 00:18 | 34.33866 | 72.02279 | 36863 ft | 521 kts | 46° |
| 2026-04-24 00:18 | 34.38581 | 72.08951 | 36863 ft | 521 kts | 46° |
| 2026-04-24 00:19 | 34.43260 | 72.15586 | 36904 ft | 522 kts | 46° |
| 2026-04-24 00:19 | 34.47977 | 72.22286 | 36889 ft | 523 kts | 46° |
| 2026-04-24 00:20 | 34.52692 | 72.28998 | 36897 ft | 524 kts | 46° |
| 2026-04-24 00:20 | 34.57418 | 72.35736 | 36927 ft | 524 kts | 46° |
| 2026-04-24 00:21 | 34.62105 | 72.42433 | 36941 ft | 523 kts | 46° |
| 2026-04-24 00:21 | 34.66822 | 72.49183 | 36942 ft | 525 kts | 46° |
| 2026-04-24 00:22 | 34.71551 | 72.55964 | 36977 ft | 526 kts | 46° |
| 2026-04-24 00:22 | 34.76263 | 72.62737 | 36936 ft | 525 kts | 46° |
| 2026-04-24 00:23 | 34.80948 | 72.69486 | 36996 ft | 526 kts | 46° |
| 2026-04-24 00:23 | 34.85672 | 72.76300 | 36998 ft | 527 kts | 46° |
| 2026-04-24 00:24 | 34.90401 | 72.83134 | 37028 ft | 528 kts | 46° |
| 2026-04-24 00:24 | 34.95135 | 72.89995 | 37061 ft | 528 kts | 46° |
| 2026-04-24 00:25 | 34.99839 | 72.96827 | 37078 ft | 530 kts | 46° |
| 2026-04-24 00:25 | 35.04552 | 73.03684 | 37071 ft | 527 kts | 46° |
| 2026-04-24 00:26 | 35.09278 | 73.10569 | 37138 ft | 534 kts | 46° |
| 2026-04-24 00:26 | 35.14036 | 73.17518 | 37159 ft | 533 kts | 46° |
| 2026-04-24 00:27 | 35.18764 | 73.24433 | 37172 ft | 536 kts | 47° |
| 2026-04-24 00:27 | 35.23530 | 73.31427 | 37143 ft | 532 kts | 47° |
| 2026-04-24 00:28 | 35.28220 | 73.38327 | 37181 ft | 526 kts | 47° |
| 2026-04-24 00:28 | 35.32902 | 73.45221 | 37193 ft | 526 kts | 46° |
| 2026-04-24 00:29 | 35.37561 | 73.52089 | 37194 ft | 528 kts | 47° |
| 2026-04-24 00:29 | 35.42230 | 73.58994 | 37159 ft | 527 kts | 46° |
| 2026-04-24 00:30 | 35.46920 | 73.65938 | 37193 ft | 531 kts | 47° |
| 2026-04-24 00:30 | 35.51652 | 73.72956 | 37180 ft | 535 kts | 47° |
| 2026-04-24 00:31 | 35.56293 | 73.79868 | 37187 ft | 524 kts | 47° |
| 2026-04-24 00:31 | 35.60953 | 73.86810 | 37185 ft | 527 kts | 47° |
| 2026-04-24 00:32 | 35.65598 | 73.93746 | 37186 ft | 526 kts | 47° |
| 2026-04-24 00:32 | 35.70273 | 74.00736 | 37187 ft | 530 kts | 48° |
| 2026-04-24 00:33 | 35.74965 | 74.07774 | 37212 ft | 535 kts | 48° |
| 2026-04-24 00:33 | 35.79666 | 74.14839 | 37191 ft | 537 kts | 48° |
| 2026-04-24 00:34 | 35.84348 | 74.21896 | 37186 ft | 530 kts | 48° |
| 2026-04-24 00:34 | 35.89032 | 74.28964 | 37187 ft | 534 kts | 48° |
| 2026-04-24 00:35 | 35.94024 | 74.35556 | 37203 ft | 526 kts | 37° |
| 2026-04-24 00:35 | 35.99665 | 74.41356 | 37188 ft | 530 kts | 37° |
| 2026-04-24 00:36 | 36.05345 | 74.47253 | 37271 ft | 539 kts | 37° |
| 2026-04-24 00:36 | 36.11055 | 74.53195 | 37244 ft | 529 kts | 37° |
| 2026-04-24 00:37 | 36.16694 | 74.59060 | 37247 ft | 532 kts | 37° |
| 2026-04-24 00:37 | 36.22299 | 74.64901 | 37266 ft | 528 kts | 36° |
| 2026-04-24 00:38 | 36.27934 | 74.70780 | 37277 ft | 529 kts | 37° |
| 2026-04-24 00:38 | 36.33552 | 74.76660 | 37279 ft | 529 kts | 37° |
| 2026-04-24 00:39 | 36.39128 | 74.82505 | 37253 ft | 525 kts | 37° |
| 2026-04-24 00:39 | 36.44673 | 74.88328 | 37276 ft | 526 kts | 37° |
| 2026-04-24 00:40 | 36.50294 | 74.94242 | 37259 ft | 529 kts | 37° |
| 2026-04-24 00:40 | 36.55892 | 75.00151 | 37271 ft | 531 kts | 37° |
| 2026-04-24 00:41 | 36.61513 | 75.06087 | 37246 ft | 529 kts | 37° |
| 2026-04-24 00:41 | 36.67027 | 75.11928 | 37249 ft | 520 kts | 37° |
| 2026-04-24 00:42 | 36.72504 | 75.17748 | 37198 ft | 515 kts | 37° |
| 2026-04-24 00:42 | 36.77957 | 75.23534 | 37248 ft | 518 kts | 37° |
| 2026-04-24 00:43 | 36.83463 | 75.29403 | 37227 ft | 522 kts | 38° |
| 2026-04-24 00:43 | 36.88889 | 75.35336 | 37223 ft | 524 kts | 44° |
| 2026-04-24 00:44 | 36.91178 | 75.38890 | 37193 ft | 527 kts | 56° |
| 2026-04-24 00:44 | 36.92925 | 75.42916 | 37182 ft | 529 kts | 66° |
| 2026-04-24 00:44 | 36.94081 | 75.47270 | 37191 ft | 527 kts | 77° |
| 2026-04-24 00:44 | 36.94606 | 75.51792 | 37166 ft | 525 kts | 88° |
| 2026-04-24 00:45 | 36.94934 | 75.60884 | 37142 ft | 523 kts | 88° |
| 2026-04-24 00:45 | 36.95291 | 75.69893 | 37099 ft | 521 kts | 88° |
| 2026-04-24 00:46 | 36.95634 | 75.78951 | 37073 ft | 523 kts | 88° |
| 2026-04-24 00:46 | 36.95967 | 75.88010 | 37085 ft | 521 kts | 89° |
| 2026-04-24 00:47 | 36.96290 | 75.97055 | 37073 ft | 521 kts | 89° |
| 2026-04-24 00:47 | 36.96605 | 76.06101 | 37060 ft | 521 kts | 89° |
| 2026-04-24 00:48 | 36.96910 | 76.15069 | 37046 ft | 520 kts | 89° |
| 2026-04-24 00:48 | 36.97213 | 76.24060 | 37050 ft | 515 kts | 89° |
| 2026-04-24 00:49 | 36.97507 | 76.33102 | 37069 ft | 525 kts | 89° |
| 2026-04-24 00:49 | 36.97798 | 76.42242 | 37066 ft | 524 kts | 89° |
| 2026-04-24 00:50 | 36.98080 | 76.51280 | 37057 ft | 525 kts | 89° |
| 2026-04-24 00:50 | 36.98359 | 76.60378 | 37055 ft | 522 kts | 89° |
| 2026-04-24 00:51 | 36.98627 | 76.69456 | 37025 ft | 523 kts | 89° |
| 2026-04-24 00:51 | 36.98887 | 76.78499 | 37045 ft | 524 kts | 89° |
| 2026-04-24 00:52 | 36.99141 | 76.87589 | 37016 ft | 524 kts | 89° |
| 2026-04-24 00:52 | 36.99389 | 76.96687 | 37013 ft | 523 kts | 89° |
| 2026-04-24 00:53 | 36.99631 | 77.05781 | 37051 ft | 523 kts | 89° |
| 2026-04-24 00:53 | 36.99866 | 77.14880 | 37045 ft | 523 kts | 89° |
| 2026-04-24 00:54 | 37.00093 | 77.23902 | 37025 ft | 521 kts | 90° |
| 2026-04-24 00:54 | 37.00314 | 77.32948 | 36997 ft | 521 kts | 90° |
| 2026-04-24 00:55 | 37.00525 | 77.41995 | 36976 ft | 521 kts | 90° |
| 2026-04-24 00:55 | 37.00730 | 77.51058 | 37007 ft | 521 kts | 90° |
| 2026-04-24 00:56 | 37.00929 | 77.60082 | 36976 ft | 523 kts | 90° |
| 2026-04-24 00:56 | 37.01116 | 77.69192 | 36975 ft | 525 kts | 90° |
| 2026-04-24 00:57 | 37.01305 | 77.78329 | 36989 ft | 526 kts | 90° |
| 2026-04-24 00:58 | 37.01576 | 77.92015 | 36978 ft | 527 kts | 90° |
| 2026-04-24 00:58 | 37.01745 | 78.01191 | 36956 ft | 528 kts | 90° |
| 2026-04-24 00:59 | 37.01908 | 78.10375 | 36996 ft | 529 kts | 90° |
| 2026-04-24 00:59 | 37.02059 | 78.19588 | 36984 ft | 529 kts | 90° |
| 2026-04-24 01:00 | 37.02214 | 78.28790 | 36955 ft | 529 kts | 90° |
| 2026-04-24 01:00 | 37.02358 | 78.37927 | 36966 ft | 528 kts | 91° |
| 2026-04-24 01:01 | 37.02492 | 78.47114 | 36937 ft | 528 kts | 91° |
| 2026-04-24 01:01 | 37.02620 | 78.56293 | 36945 ft | 527 kts | 91° |
| 2026-04-24 01:02 | 37.02739 | 78.65399 | 36925 ft | 527 kts | 91° |
| 2026-04-24 01:02 | 37.02853 | 78.74557 | 36897 ft | 527 kts | 91° |
| 2026-04-24 01:03 | 37.02959 | 78.83731 | 36901 ft | 528 kts | 91° |
| 2026-04-24 01:03 | 37.03059 | 78.92921 | 36890 ft | 528 kts | 91° |
| 2026-04-24 01:04 | 37.03152 | 79.02112 | 36880 ft | 529 kts | 91° |
| 2026-04-24 01:04 | 37.03236 | 79.11259 | 36893 ft | 530 kts | 91° |
| 2026-04-24 01:05 | 37.03314 | 79.20489 | 36885 ft | 531 kts | 91° |
| 2026-04-24 01:05 | 37.03386 | 79.29732 | 36889 ft | 531 kts | 91° |
| 2026-04-24 01:06 | 37.03451 | 79.38985 | 36897 ft | 532 kts | 91° |
| 2026-04-24 01:06 | 37.03508 | 79.48179 | 36898 ft | 531 kts | 91° |
| 2026-04-24 01:07 | 37.03558 | 79.57416 | 36894 ft | 531 kts | 91° |
| 2026-04-24 01:07 | 37.03601 | 79.66655 | 36887 ft | 530 kts | 91° |
| 2026-04-24 01:08 | 37.03640 | 79.75883 | 36877 ft | 530 kts | 91° |
| 2026-04-24 01:08 | 37.03781 | 79.85030 | 36880 ft | 529 kts | 85° |
| 2026-04-24 01:09 | 37.05242 | 79.94047 | 36868 ft | 529 kts | 75° |
| 2026-04-24 01:09 | 37.07197 | 80.02933 | 36854 ft | 529 kts | 75° |
| 2026-04-24 01:10 | 37.09132 | 80.11822 | 36853 ft | 529 kts | 75° |
| 2026-04-24 01:10 | 37.11058 | 80.20704 | 36851 ft | 529 kts | 75° |
| 2026-04-24 01:11 | 37.12966 | 80.29540 | 36851 ft | 529 kts | 75° |
| 2026-04-24 01:11 | 37.14882 | 80.38444 | 36851 ft | 529 kts | 75° |
| 2026-04-24 01:12 | 37.16790 | 80.47352 | 36848 ft | 529 kts | 75° |
| 2026-04-24 01:12 | 37.18681 | 80.56214 | 36852 ft | 530 kts | 75° |
| 2026-04-24 01:13 | 37.20580 | 80.65148 | 36853 ft | 530 kts | 75° |
| 2026-04-24 01:13 | 37.22470 | 80.74074 | 36855 ft | 530 kts | 75° |
| 2026-04-24 01:14 | 37.24355 | 80.83015 | 36856 ft | 530 kts | 75° |
| 2026-04-24 01:14 | 37.26221 | 80.91900 | 36851 ft | 530 kts | 75° |
| 2026-04-24 01:15 | 37.28091 | 81.00842 | 36858 ft | 529 kts | 75° |
| 2026-04-24 01:15 | 37.29953 | 81.09781 | 36855 ft | 529 kts | 75° |
| 2026-04-24 01:16 | 37.31806 | 81.18717 | 36853 ft | 528 kts | 75° |
| 2026-04-24 01:16 | 37.33650 | 81.27645 | 36849 ft | 528 kts | 75° |
| 2026-04-24 01:17 | 37.35476 | 81.36520 | 36845 ft | 528 kts | 76° |
| 2026-04-24 01:17 | 37.37307 | 81.45459 | 36846 ft | 528 kts | 76° |
| 2026-04-24 01:18 | 37.39131 | 81.54400 | 36845 ft | 528 kts | 76° |
| 2026-04-24 01:18 | 37.40946 | 81.63333 | 36845 ft | 528 kts | 76° |
| 2026-04-24 01:19 | 37.42744 | 81.72220 | 36867 ft | 528 kts | 76° |
| 2026-04-24 01:19 | 37.44549 | 81.81179 | 36850 ft | 528 kts | 76° |
| 2026-04-24 01:20 | 37.46348 | 81.90148 | 36844 ft | 529 kts | 76° |
| 2026-04-24 01:20 | 37.48140 | 81.99120 | 36855 ft | 529 kts | 76° |
| 2026-04-24 01:21 | 37.49916 | 82.08046 | 36855 ft | 529 kts | 76° |
| 2026-04-24 01:21 | 37.51697 | 82.17040 | 36860 ft | 529 kts | 76° |
| 2026-04-24 01:22 | 37.53471 | 82.26035 | 36860 ft | 529 kts | 76° |
| 2026-04-24 01:22 | 37.55239 | 82.35040 | 36858 ft | 529 kts | 76° |
| 2026-04-24 01:23 | 37.56988 | 82.43984 | 36861 ft | 529 kts | 76° |
| 2026-04-24 01:23 | 37.58741 | 82.52995 | 36859 ft | 529 kts | 76° |
| 2026-04-24 01:24 | 37.60488 | 82.62006 | 36858 ft | 529 kts | 76° |
| 2026-04-24 01:24 | 37.62227 | 82.71018 | 36861 ft | 529 kts | 76° |
| 2026-04-24 01:25 | 37.63947 | 82.79972 | 36853 ft | 529 kts | 76° |
| 2026-04-24 01:25 | 37.65670 | 82.88984 | 36864 ft | 528 kts | 76° |
| 2026-04-24 01:26 | 37.67388 | 82.98002 | 36863 ft | 528 kts | 76° |
| 2026-04-24 01:26 | 37.69097 | 83.07019 | 36864 ft | 528 kts | 76° |
| 2026-04-24 01:27 | 37.70789 | 83.15985 | 36862 ft | 528 kts | 76° |
| 2026-04-24 01:27 | 37.72485 | 83.25013 | 36867 ft | 528 kts | 76° |
| 2026-04-24 01:28 | 37.74179 | 83.34043 | 36870 ft | 528 kts | 76° |
| 2026-04-24 01:28 | 37.75863 | 83.43078 | 36871 ft | 528 kts | 76° |
| 2026-04-24 01:29 | 37.77525 | 83.52048 | 36867 ft | 528 kts | 76° |
| 2026-04-24 01:29 | 37.79199 | 83.61102 | 36857 ft | 529 kts | 76° |
| 2026-04-24 01:30 | 37.80868 | 83.70173 | 36866 ft | 530 kts | 76° |
| 2026-04-24 01:30 | 37.82532 | 83.79252 | 36872 ft | 530 kts | 76° |
| 2026-04-24 01:31 | 37.84180 | 83.88287 | 36876 ft | 531 kts | 76° |
| 2026-04-24 01:31 | 37.85833 | 83.97394 | 36875 ft | 531 kts | 76° |
| 2026-04-24 01:32 | 37.87480 | 84.06509 | 36877 ft | 531 kts | 76° |
| 2026-04-24 01:32 | 37.89108 | 84.15560 | 36878 ft | 531 kts | 77° |
| 2026-04-24 01:33 | 37.90741 | 84.24686 | 36876 ft | 531 kts | 77° |
| 2026-04-24 01:33 | 37.92366 | 84.33811 | 36883 ft | 531 kts | 76° |
| 2026-04-24 01:34 | 37.93983 | 84.42934 | 36881 ft | 530 kts | 76° |
| 2026-04-24 01:34 | 37.95590 | 84.52039 | 36877 ft | 530 kts | 77° |
| 2026-04-24 01:35 | 37.97180 | 84.61096 | 36873 ft | 530 kts | 77° |
| 2026-04-24 01:35 | 37.98772 | 84.70206 | 36880 ft | 529 kts | 77° |
| 2026-04-24 01:36 | 38.00354 | 84.79303 | 36876 ft | 529 kts | 77° |
| 2026-04-24 01:36 | 38.02296 | 84.88270 | 36874 ft | 527 kts | 67° |
| 2026-04-24 01:37 | 38.05214 | 84.96703 | 36872 ft | 525 kts | 64° |
| 2026-04-24 01:37 | 38.08166 | 85.05192 | 36885 ft | 526 kts | 64° |
| 2026-04-24 01:38 | 38.11113 | 85.13698 | 36886 ft | 527 kts | 64° |
| 2026-04-24 01:38 | 38.14061 | 85.22218 | 36890 ft | 527 kts | 64° |
| 2026-04-24 01:39 | 38.16982 | 85.30681 | 36887 ft | 527 kts | 64° |
| 2026-04-24 01:39 | 38.19917 | 85.39222 | 36888 ft | 527 kts | 65° |
| 2026-04-24 01:40 | 38.22096 | 85.48136 | 36891 ft | 530 kts | 77° |
| 2026-04-24 01:40 | 38.23260 | 85.57389 | 36887 ft | 530 kts | 80° |
| 2026-04-24 01:41 | 38.24402 | 85.66581 | 36889 ft | 529 kts | 80° |
| 2026-04-24 01:41 | 38.25540 | 85.75837 | 36886 ft | 529 kts | 80° |
| 2026-04-24 01:42 | 38.26660 | 85.85084 | 36886 ft | 529 kts | 80° |
| 2026-04-24 01:42 | 38.27773 | 85.94344 | 36885 ft | 529 kts | 80° |
| 2026-04-24 01:43 | 38.28870 | 86.03544 | 36884 ft | 529 kts | 80° |
| 2026-04-24 01:43 | 38.29968 | 86.12804 | 36885 ft | 529 kts | 80° |
| 2026-04-24 01:44 | 38.31059 | 86.22074 | 36887 ft | 529 kts | 80° |
| 2026-04-24 01:44 | 38.32142 | 86.31341 | 36885 ft | 529 kts | 80° |
| 2026-04-24 01:45 | 38.33210 | 86.40540 | 36884 ft | 529 kts | 80° |
| 2026-04-24 01:45 | 38.34278 | 86.49809 | 36879 ft | 529 kts | 81° |
| 2026-04-24 01:46 | 38.35339 | 86.59076 | 36882 ft | 529 kts | 80° |
| 2026-04-24 01:46 | 38.36391 | 86.68346 | 36877 ft | 529 kts | 80° |
| 2026-04-24 01:47 | 38.37431 | 86.77557 | 36879 ft | 529 kts | 81° |
| 2026-04-24 01:47 | 38.38468 | 86.86823 | 36890 ft | 529 kts | 81° |
| 2026-04-24 01:48 | 38.39500 | 86.96107 | 36885 ft | 529 kts | 81° |
| 2026-04-24 01:48 | 38.40526 | 87.05407 | 36878 ft | 530 kts | 80° |
| 2026-04-24 01:49 | 38.41546 | 87.14716 | 36886 ft | 530 kts | 81° |
| 2026-04-24 01:49 | 38.42552 | 87.23971 | 36887 ft | 530 kts | 81° |
| 2026-04-24 01:50 | 38.43557 | 87.33294 | 36900 ft | 531 kts | 81° |
| 2026-04-24 01:50 | 38.44556 | 87.42625 | 36890 ft | 531 kts | 81° |
| 2026-04-24 01:51 | 38.45541 | 87.51897 | 36891 ft | 531 kts | 81° |
| 2026-04-24 01:51 | 38.46525 | 87.61231 | 36897 ft | 531 kts | 81° |
| 2026-04-24 01:52 | 38.47500 | 87.70557 | 36896 ft | 531 kts | 81° |
| 2026-04-24 01:52 | 38.48469 | 87.79895 | 36903 ft | 531 kts | 81° |
| 2026-04-24 01:53 | 38.49431 | 87.89236 | 36919 ft | 530 kts | 81° |
| 2026-04-24 01:53 | 38.50378 | 87.98513 | 36923 ft | 531 kts | 81° |
| 2026-04-24 01:54 | 38.51324 | 88.07853 | 36952 ft | 531 kts | 81° |
| 2026-04-24 01:54 | 38.52265 | 88.17212 | 36963 ft | 532 kts | 81° |
| 2026-04-24 01:55 | 38.53199 | 88.26577 | 36977 ft | 531 kts | 81° |
| 2026-04-24 01:55 | 38.54116 | 88.35863 | 36993 ft | 531 kts | 81° |
| 2026-04-24 01:56 | 38.55033 | 88.45220 | 36990 ft | 530 kts | 81° |
| 2026-04-24 01:56 | 38.55941 | 88.54559 | 36977 ft | 530 kts | 81° |
| 2026-04-24 01:57 | 38.56843 | 88.63901 | 36988 ft | 530 kts | 81° |
| 2026-04-24 01:57 | 38.57749 | 88.73182 | 36989 ft | 529 kts | 79° |
| 2026-04-24 01:58 | 38.59076 | 88.82417 | 36999 ft | 527 kts | 76° |
| 2026-04-24 01:58 | 38.60466 | 88.91609 | 36991 ft | 527 kts | 76° |
| 2026-04-24 01:59 | 38.61795 | 89.00835 | 37016 ft | 528 kts | 77° |
| 2026-04-24 01:59 | 38.63092 | 89.10017 | 37036 ft | 529 kts | 77° |
| 2026-04-24 02:00 | 38.64388 | 89.19273 | 37025 ft | 528 kts | 77° |
| 2026-04-24 02:00 | 38.65678 | 89.28530 | 37068 ft | 529 kts | 77° |
| 2026-04-24 02:01 | 38.66968 | 89.37827 | 37023 ft | 531 kts | 77° |
| 2026-04-24 02:01 | 38.68242 | 89.47069 | 37046 ft | 532 kts | 77° |
| 2026-04-24 02:02 | 38.69519 | 89.56393 | 37055 ft | 532 kts | 77° |
| 2026-04-24 02:02 | 38.70788 | 89.65720 | 37052 ft | 532 kts | 77° |
| 2026-04-24 02:03 | 38.72677 | 89.79711 | 37068 ft | 531 kts | 77° |
| 2026-04-24 02:03 | 38.73917 | 89.88962 | 37069 ft | 531 kts | 77° |
| 2026-04-24 02:04 | 38.75157 | 89.98274 | 37064 ft | 530 kts | 77° |
| 2026-04-24 02:04 | 38.76387 | 90.07579 | 37067 ft | 530 kts | 77° |
| 2026-04-24 02:05 | 38.77611 | 90.16886 | 37073 ft | 529 kts | 77° |
| 2026-04-24 02:05 | 38.78827 | 90.26187 | 37073 ft | 529 kts | 77° |
| 2026-04-24 02:06 | 38.80028 | 90.35425 | 37071 ft | 529 kts | 77° |
| 2026-04-24 02:06 | 38.81227 | 90.44720 | 37075 ft | 529 kts | 77° |
| 2026-04-24 02:07 | 38.82421 | 90.54030 | 37084 ft | 529 kts | 77° |
| 2026-04-24 02:07 | 38.83609 | 90.63346 | 37086 ft | 529 kts | 77° |
| 2026-04-24 02:08 | 38.84782 | 90.72608 | 37075 ft | 530 kts | 77° |
| 2026-04-24 02:08 | 38.85955 | 90.81937 | 37080 ft | 530 kts | 77° |
| 2026-04-24 02:09 | 38.87121 | 90.91268 | 37076 ft | 530 kts | 77° |
| 2026-04-24 02:09 | 38.88371 | 91.00588 | 37081 ft | 528 kts | 74° |
| 2026-04-24 02:10 | 38.89899 | 91.09808 | 37092 ft | 528 kts | 73° |
| 2026-04-24 02:10 | 38.91390 | 91.18988 | 37094 ft | 529 kts | 74° |
| 2026-04-24 02:11 | 38.92853 | 91.28246 | 37107 ft | 529 kts | 74° |
| 2026-04-24 02:11 | 38.94300 | 91.37498 | 37092 ft | 529 kts | 74° |
| 2026-04-24 02:12 | 38.95740 | 91.46756 | 37093 ft | 528 kts | 74° |
| 2026-04-24 02:12 | 38.97163 | 91.55952 | 37097 ft | 528 kts | 74° |
| 2026-04-24 02:13 | 38.98586 | 91.65204 | 37086 ft | 527 kts | 74° |
| 2026-04-24 02:13 | 39.00001 | 91.74447 | 37086 ft | 527 kts | 74° |
| 2026-04-24 02:14 | 39.01408 | 91.83688 | 37080 ft | 527 kts | 74° |
| 2026-04-24 02:14 | 39.02797 | 91.92870 | 37075 ft | 526 kts | 74° |
| 2026-04-24 02:15 | 39.04188 | 92.02113 | 37061 ft | 526 kts | 74° |
| 2026-04-24 02:15 | 39.05574 | 92.11367 | 37064 ft | 527 kts | 74° |
| 2026-04-24 02:16 | 39.06950 | 92.20609 | 37059 ft | 525 kts | 74° |
| 2026-04-24 02:16 | 39.08752 | 92.29592 | 37083 ft | 518 kts | 64° |
| 2026-04-24 02:17 | 39.11816 | 92.37881 | 37053 ft | 509 kts | 53° |
| 2026-04-24 02:17 | 39.15330 | 92.45799 | 37066 ft | 510 kts | 53° |
| 2026-04-24 02:18 | 39.18824 | 92.53763 | 37046 ft | 511 kts | 54° |
| 2026-04-24 02:18 | 39.22298 | 92.61688 | 37070 ft | 511 kts | 54° |
| 2026-04-24 02:19 | 39.25793 | 92.69673 | 37080 ft | 511 kts | 54° |
| 2026-04-24 02:19 | 39.29283 | 92.77671 | 37070 ft | 511 kts | 54° |
| 2026-04-24 02:20 | 39.32766 | 92.85670 | 37072 ft | 511 kts | 54° |
| 2026-04-24 02:20 | 39.36217 | 92.93618 | 37050 ft | 511 kts | 54° |
| 2026-04-24 02:21 | 39.39686 | 93.01627 | 37044 ft | 510 kts | 54° |
| 2026-04-24 02:21 | 39.43143 | 93.09628 | 37080 ft | 509 kts | 54° |
| 2026-04-24 02:22 | 39.46592 | 93.17633 | 37036 ft | 509 kts | 54° |
| 2026-04-24 02:22 | 39.50009 | 93.25584 | 37038 ft | 508 kts | 54° |
| 2026-04-24 02:23 | 39.53441 | 93.33588 | 37032 ft | 508 kts | 54° |
| 2026-04-24 02:23 | 39.56864 | 93.41592 | 37028 ft | 508 kts | 54° |
| 2026-04-24 02:24 | 39.60278 | 93.49600 | 37024 ft | 507 kts | 54° |
| 2026-04-24 02:24 | 39.63663 | 93.57557 | 36993 ft | 507 kts | 55° |
| 2026-04-24 02:25 | 39.67060 | 93.65563 | 36993 ft | 507 kts | 55° |
| 2026-04-24 02:25 | 39.70456 | 93.73588 | 36965 ft | 507 kts | 55° |
| 2026-04-24 02:26 | 39.73846 | 93.81618 | 36982 ft | 507 kts | 55° |
| 2026-04-24 02:26 | 39.77199 | 93.89586 | 37006 ft | 505 kts | 55° |
| 2026-04-24 02:27 | 39.80561 | 93.97593 | 36989 ft | 504 kts | 55° |
| 2026-04-24 02:27 | 39.83906 | 94.05583 | 36977 ft | 503 kts | 55° |
| 2026-04-24 02:28 | 39.87241 | 94.13567 | 36972 ft | 502 kts | 55° |
| 2026-04-24 02:28 | 39.90546 | 94.21501 | 36983 ft | 501 kts | 55° |
| 2026-04-24 02:29 | 39.93859 | 94.29475 | 36988 ft | 500 kts | 55° |
| 2026-04-24 02:29 | 39.97159 | 94.37440 | 37004 ft | 499 kts | 54° |
| 2026-04-24 02:30 | 40.00447 | 94.45393 | 36995 ft | 497 kts | 54° |
| 2026-04-24 02:30 | 40.03700 | 94.53281 | 36991 ft | 496 kts | 54° |
| 2026-04-24 02:31 | 40.06963 | 94.61217 | 36994 ft | 496 kts | 54° |
| 2026-04-24 02:31 | 40.10217 | 94.69139 | 36992 ft | 495 kts | 53° |
| 2026-04-24 02:32 | 40.13739 | 94.76756 | 36985 ft | 480 kts | 41° |
| 2026-04-24 02:32 | 40.15996 | 94.79810 | 36996 ft | 468 kts | 32° |
| 2026-04-24 02:32 | 40.18575 | 94.82317 | 36977 ft | 457 kts | 23° |
| 2026-04-24 02:33 | 40.24270 | 94.85496 | 36977 ft | 438 kts | 7° |
| 2026-04-24 02:33 | 40.30223 | 94.86603 | 36972 ft | 431 kts | 0° |
| 2026-04-24 02:34 | 40.36182 | 94.87733 | 36970 ft | 434 kts | 3° |
| 2026-04-24 02:34 | 40.42109 | 94.89047 | 36974 ft | 436 kts | 3° |
| 2026-04-24 02:35 | 40.48093 | 94.90328 | 36989 ft | 437 kts | 3° |
| 2026-04-24 02:35 | 40.54105 | 94.91593 | 37000 ft | 438 kts | 3° |
| 2026-04-24 02:36 | 40.60134 | 94.92862 | 37011 ft | 439 kts | 3° |
| 2026-04-24 02:36 | 40.66142 | 94.94128 | 37010 ft | 441 kts | 3° |
| 2026-04-24 02:37 | 40.72204 | 94.95410 | 37055 ft | 441 kts | 3° |
| 2026-04-24 02:37 | 40.78270 | 94.96693 | 37023 ft | 442 kts | 3° |
| 2026-04-24 02:38 | 40.84339 | 94.97981 | 37014 ft | 442 kts | 4° |
| 2026-04-24 02:38 | 40.90366 | 94.99262 | 37010 ft | 441 kts | 4° |
| 2026-04-24 02:39 | 40.96426 | 95.00552 | 37008 ft | 441 kts | 4° |
| 2026-04-24 02:39 | 41.02482 | 95.01844 | 37006 ft | 441 kts | 4° |
| 2026-04-24 02:40 | 41.08530 | 95.03136 | 37014 ft | 440 kts | 4° |
| 2026-04-24 02:40 | 41.14539 | 95.04422 | 37009 ft | 440 kts | 4° |
| 2026-04-24 02:41 | 41.20589 | 95.05720 | 37012 ft | 440 kts | 4° |
| 2026-04-24 02:41 | 41.26640 | 95.07019 | 37012 ft | 441 kts | 4° |
| 2026-04-24 02:42 | 41.32696 | 95.08323 | 37016 ft | 441 kts | 4° |
| 2026-04-24 02:42 | 41.38715 | 95.09621 | 37016 ft | 441 kts | 4° |
| 2026-04-24 02:43 | 41.44774 | 95.10930 | 37014 ft | 441 kts | 4° |
| 2026-04-24 02:43 | 41.50831 | 95.12242 | 37026 ft | 441 kts | 4° |
| 2026-04-24 02:44 | 41.56878 | 95.13554 | 37023 ft | 441 kts | 4° |
| 2026-04-24 02:44 | 41.62927 | 95.14868 | 37021 ft | 440 kts | 4° |
| 2026-04-24 02:45 | 41.68931 | 95.16175 | 37023 ft | 440 kts | 4° |
| 2026-04-24 02:45 | 41.74844 | 95.18493 | 37022 ft | 451 kts | 19° |
| 2026-04-24 02:46 | 41.80102 | 95.23295 | 37014 ft | 468 kts | 37° |
| 2026-04-24 02:46 | 41.83551 | 95.28997 | 37001 ft | 484 kts | 52° |
| 2026-04-24 02:47 | 41.85447 | 95.34497 | 37040 ft | 498 kts | 65° |
| 2026-04-24 02:47 | 41.86253 | 95.39048 | 37042 ft | 508 kts | 76° |
| 2026-04-24 02:47 | 41.86509 | 95.48642 | 37037 ft | 516 kts | 83° |
| 2026-04-24 02:48 | 41.86620 | 95.58272 | 37036 ft | 516 kts | 83° |
| 2026-04-24 02:48 | 41.86705 | 95.66269 | 37055 ft | 516 kts | 83° |
| 2026-04-24 02:49 | 41.86795 | 95.75904 | 37060 ft | 517 kts | 83° |
| 2026-04-24 02:49 | 41.86887 | 95.87096 | 37071 ft | 516 kts | 83° |
| 2026-04-24 02:50 | 41.86946 | 95.95094 | 37060 ft | 515 kts | 83° |
| 2026-04-24 02:50 | 41.87009 | 96.04680 | 37052 ft | 514 kts | 83° |
| 2026-04-24 02:51 | 41.87074 | 96.15822 | 37052 ft | 514 kts | 84° |
| 2026-04-24 02:51 | 41.87113 | 96.23787 | 37041 ft | 513 kts | 84° |
| 2026-04-24 02:52 | 41.87230 | 96.33345 | 37037 ft | 512 kts | 83° |
| 2026-04-24 02:52 | 41.87408 | 96.42880 | 37040 ft | 511 kts | 83° |
| 2026-04-24 02:53 | 41.87597 | 96.53970 | 37048 ft | 512 kts | 83° |
| 2026-04-24 02:53 | 41.87718 | 96.61911 | 37025 ft | 512 kts | 83° |
| 2026-04-24 02:54 | 41.87851 | 96.71462 | 37036 ft | 512 kts | 83° |
| 2026-04-24 02:54 | 41.87976 | 96.81017 | 37045 ft | 512 kts | 83° |
| 2026-04-24 02:55 | 41.88094 | 96.90571 | 37042 ft | 513 kts | 84° |
| 2026-04-24 02:55 | 41.88203 | 97.00145 | 37039 ft | 513 kts | 84° |
| 2026-04-24 02:56 | 41.88304 | 97.09649 | 37038 ft | 513 kts | 84° |
| 2026-04-24 02:56 | 41.88397 | 97.19205 | 37029 ft | 513 kts | 84° |
| 2026-04-24 02:57 | 41.88482 | 97.28773 | 37031 ft | 513 kts | 84° |
| 2026-04-24 02:57 | 41.88560 | 97.38340 | 37024 ft | 513 kts | 84° |
| 2026-04-24 02:58 | 41.88629 | 97.47841 | 37023 ft | 512 kts | 84° |
| 2026-04-24 02:58 | 41.88691 | 97.57403 | 37021 ft | 512 kts | 84° |
| 2026-04-24 02:59 | 41.88746 | 97.66974 | 37022 ft | 513 kts | 85° |
| 2026-04-24 02:59 | 41.88792 | 97.76550 | 37025 ft | 513 kts | 85° |
| 2026-04-24 03:00 | 41.88829 | 97.86121 | 37029 ft | 513 kts | 85° |
| 2026-04-24 03:00 | 41.88859 | 97.95642 | 37020 ft | 513 kts | 85° |
| 2026-04-24 03:01 | 41.88882 | 98.05231 | 37026 ft | 514 kts | 85° |
| 2026-04-24 03:01 | 41.88896 | 98.14817 | 37028 ft | 514 kts | 85° |
| 2026-04-24 03:02 | 41.88902 | 98.24407 | 37022 ft | 514 kts | 85° |
| 2026-04-24 03:02 | 41.88900 | 98.33931 | 37022 ft | 514 kts | 85° |
| 2026-04-24 03:03 | 41.88891 | 98.43521 | 37032 ft | 514 kts | 85° |
| 2026-04-24 03:03 | 41.88873 | 98.53111 | 37019 ft | 514 kts | 85° |
| 2026-04-24 03:04 | 41.88848 | 98.62682 | 37014 ft | 513 kts | 85° |
| 2026-04-24 03:04 | 41.88814 | 98.72189 | 37028 ft | 512 kts | 85° |
| 2026-04-24 03:05 | 41.88773 | 98.81755 | 37012 ft | 512 kts | 85° |
| 2026-04-24 03:05 | 41.88724 | 98.91309 | 37006 ft | 512 kts | 85° |
| 2026-04-24 03:06 | 41.88667 | 99.00844 | 36997 ft | 511 kts | 85° |
| 2026-04-24 03:06 | 41.88602 | 99.10320 | 37031 ft | 511 kts | 85° |
| 2026-04-24 03:07 | 41.88529 | 99.19862 | 37011 ft | 511 kts | 85° |
| 2026-04-24 03:07 | 41.88448 | 99.29397 | 37011 ft | 511 kts | 85° |
| 2026-04-24 03:08 | 41.88314 | 99.43614 | 37007 ft | 511 kts | 85° |
| 2026-04-24 03:09 | 41.88213 | 99.53150 | 37017 ft | 511 kts | 85° |
| 2026-04-24 03:09 | 41.88106 | 99.62685 | 37016 ft | 511 kts | 85° |
| 2026-04-24 03:10 | 41.87990 | 99.72145 | 37013 ft | 511 kts | 85° |
| 2026-04-24 03:10 | 41.87867 | 99.81673 | 37015 ft | 511 kts | 85° |
| 2026-04-24 03:11 | 41.87734 | 99.91201 | 37023 ft | 511 kts | 85° |
| 2026-04-24 03:11 | 41.87595 | 100.00727 | 37018 ft | 510 kts | 85° |
| 2026-04-24 03:12 | 41.87449 | 100.10186 | 37007 ft | 510 kts | 85° |
| 2026-04-24 03:12 | 41.87294 | 100.19706 | 37024 ft | 510 kts | 85° |
| 2026-04-24 03:13 | 41.87130 | 100.29231 | 37010 ft | 511 kts | 85° |
| 2026-04-24 03:13 | 41.86960 | 100.38754 | 37007 ft | 510 kts | 85° |
| 2026-04-24 03:14 | 41.86781 | 100.48264 | 37011 ft | 510 kts | 85° |
| 2026-04-24 03:14 | 41.86596 | 100.57723 | 37042 ft | 510 kts | 85° |
| 2026-04-24 03:15 | 41.86401 | 100.67249 | 37013 ft | 511 kts | 85° |
| 2026-04-24 03:15 | 41.86198 | 100.76780 | 37008 ft | 511 kts | 85° |
| 2026-04-24 03:16 | 41.85989 | 100.86294 | 37009 ft | 511 kts | 85° |
| 2026-04-24 03:16 | 41.85772 | 100.95754 | 37004 ft | 511 kts | 85° |
| 2026-04-24 03:17 | 41.85547 | 101.05276 | 37001 ft | 511 kts | 85° |
| 2026-04-24 03:17 | 41.85310 | 101.14801 | 36997 ft | 512 kts | 87° |
| 2026-04-24 03:18 | 41.84300 | 101.24315 | 36998 ft | 520 kts | 98° |
| 2026-04-24 03:18 | 41.82098 | 101.33626 | 36999 ft | 527 kts | 105° |
| 2026-04-24 03:19 | 41.79581 | 101.42784 | 36989 ft | 527 kts | 105° |
| 2026-04-24 03:19 | 41.77059 | 101.52011 | 37000 ft | 527 kts | 105° |
| 2026-04-24 03:20 | 41.74520 | 101.61229 | 36997 ft | 528 kts | 105° |
| 2026-04-24 03:20 | 41.71968 | 101.70446 | 36996 ft | 529 kts | 105° |
| 2026-04-24 03:21 | 41.69422 | 101.79605 | 37014 ft | 528 kts | 105° |
| 2026-04-24 03:21 | 41.66852 | 101.88820 | 37015 ft | 528 kts | 105° |
| 2026-04-24 03:22 | 41.64275 | 101.98026 | 36992 ft | 529 kts | 105° |
| 2026-04-24 03:22 | 41.61692 | 102.07216 | 37008 ft | 529 kts | 105° |
| 2026-04-24 03:23 | 41.59118 | 102.16344 | 36999 ft | 528 kts | 105° |
| 2026-04-24 03:23 | 41.56523 | 102.25514 | 36996 ft | 527 kts | 105° |
| 2026-04-24 03:24 | 41.53924 | 102.34666 | 36991 ft | 527 kts | 105° |
| 2026-04-24 03:24 | 41.51323 | 102.43789 | 37010 ft | 526 kts | 105° |
| 2026-04-24 03:25 | 41.48735 | 102.52835 | 37008 ft | 525 kts | 105° |
| 2026-04-24 03:25 | 41.46128 | 102.61920 | 37001 ft | 524 kts | 105° |
| 2026-04-24 03:26 | 41.43520 | 102.70977 | 36994 ft | 523 kts | 105° |
| 2026-04-24 03:26 | 41.40937 | 102.79967 | 37015 ft | 523 kts | 105° |
| 2026-04-24 03:27 | 41.38339 | 102.88999 | 37011 ft | 522 kts | 105° |
| 2026-04-24 03:27 | 41.35737 | 102.98006 | 37007 ft | 521 kts | 105° |
| 2026-04-24 03:28 | 41.33205 | 103.07017 | 37000 ft | 519 kts | 104° |
| 2026-04-24 03:28 | 41.30756 | 103.15969 | 37019 ft | 519 kts | 104° |
| 2026-04-24 03:29 | 41.28269 | 103.24963 | 37014 ft | 518 kts | 104° |
| 2026-04-24 03:29 | 41.25770 | 103.33937 | 37008 ft | 517 kts | 104° |
| 2026-04-24 03:30 | 41.23266 | 103.42891 | 37002 ft | 517 kts | 104° |
| 2026-04-24 03:30 | 41.20776 | 103.51768 | 37024 ft | 516 kts | 104° |
| 2026-04-24 03:31 | 41.18262 | 103.60700 | 37005 ft | 516 kts | 104° |
| 2026-04-24 03:31 | 41.15742 | 103.69619 | 36982 ft | 516 kts | 105° |
| 2026-04-24 03:32 | 41.13232 | 103.78471 | 36985 ft | 516 kts | 105° |
| 2026-04-24 03:32 | 41.10701 | 103.87365 | 37011 ft | 516 kts | 105° |
| 2026-04-24 03:33 | 41.08157 | 103.96281 | 36983 ft | 517 kts | 105° |
| 2026-04-24 03:33 | 41.05601 | 104.05199 | 36988 ft | 518 kts | 105° |
| 2026-04-24 03:34 | 41.03037 | 104.14118 | 36997 ft | 519 kts | 105° |
| 2026-04-24 03:34 | 41.00476 | 104.22996 | 37032 ft | 520 kts | 106° |
| 2026-04-24 03:35 | 40.97887 | 104.31945 | 37014 ft | 521 kts | 106° |
| 2026-04-24 03:35 | 40.95619 | 104.41007 | 37010 ft | 518 kts | 102° |
| 2026-04-24 03:36 | 40.93510 | 104.50115 | 37006 ft | 518 kts | 102° |
| 2026-04-24 03:36 | 40.91355 | 104.59135 | 37006 ft | 518 kts | 103° |
| 2026-04-24 03:37 | 40.89151 | 104.68204 | 37003 ft | 518 kts | 103° |
| 2026-04-24 03:37 | 40.86939 | 104.77263 | 36999 ft | 518 kts | 103° |
| 2026-04-24 03:38 | 40.84720 | 104.86316 | 36994 ft | 518 kts | 103° |
| 2026-04-24 03:38 | 40.82515 | 104.95284 | 37000 ft | 518 kts | 103° |
| 2026-04-24 03:39 | 40.80284 | 105.04319 | 36991 ft | 517 kts | 103° |
| 2026-04-24 03:39 | 40.78045 | 105.13349 | 36990 ft | 517 kts | 103° |
| 2026-04-24 03:40 | 40.75805 | 105.22353 | 36970 ft | 517 kts | 104° |
| 2026-04-24 03:40 | 40.73568 | 105.31313 | 36983 ft | 518 kts | 104° |
| 2026-04-24 03:41 | 40.71303 | 105.40347 | 36981 ft | 519 kts | 104° |
| 2026-04-24 03:41 | 40.69033 | 105.49365 | 36987 ft | 520 kts | 104° |
| 2026-04-24 03:42 | 40.66751 | 105.58398 | 36987 ft | 520 kts | 104° |
| 2026-04-24 03:42 | 40.64460 | 105.67435 | 37003 ft | 520 kts | 104° |
| 2026-04-24 03:43 | 40.62180 | 105.76393 | 37004 ft | 519 kts | 105° |
| 2026-04-24 03:43 | 40.59883 | 105.85382 | 36995 ft | 518 kts | 105° |
| 2026-04-24 03:44 | 40.57582 | 105.94354 | 36978 ft | 517 kts | 105° |
| 2026-04-24 03:44 | 40.55278 | 106.03310 | 36997 ft | 516 kts | 105° |
| 2026-04-24 03:45 | 40.52986 | 106.12181 | 36987 ft | 515 kts | 105° |
| 2026-04-24 03:45 | 40.50677 | 106.21089 | 36977 ft | 514 kts | 105° |
| 2026-04-24 03:46 | 40.48364 | 106.29977 | 36962 ft | 514 kts | 105° |
| 2026-04-24 03:46 | 40.46049 | 106.38844 | 36964 ft | 513 kts | 105° |
| 2026-04-24 03:47 | 40.43746 | 106.47631 | 36957 ft | 512 kts | 105° |
| 2026-04-24 03:47 | 40.41424 | 106.56458 | 36940 ft | 511 kts | 105° |
| 2026-04-24 03:48 | 40.39101 | 106.65257 | 36932 ft | 510 kts | 105° |
| 2026-04-24 03:48 | 40.36772 | 106.74050 | 36942 ft | 510 kts | 106° |
| 2026-04-24 03:49 | 40.34454 | 106.82772 | 36938 ft | 510 kts | 106° |
| 2026-04-24 03:49 | 40.32260 | 106.91580 | 36933 ft | 506 kts | 99° |
| 2026-04-24 03:50 | 40.31589 | 107.00643 | 36927 ft | 497 kts | 83° |
| 2026-04-24 03:50 | 40.32487 | 107.09539 | 36926 ft | 492 kts | 76° |
| 2026-04-24 03:51 | 40.33592 | 107.18344 | 36932 ft | 493 kts | 77° |
| 2026-04-24 03:51 | 40.34685 | 107.27226 | 36943 ft | 494 kts | 77° |
| 2026-04-24 03:52 | 40.35775 | 107.36131 | 36951 ft | 495 kts | 77° |
| 2026-04-24 03:52 | 40.36863 | 107.45055 | 36948 ft | 496 kts | 77° |
| 2026-04-24 03:53 | 40.37939 | 107.53945 | 36951 ft | 497 kts | 77° |
| 2026-04-24 03:53 | 40.39016 | 107.62908 | 36953 ft | 498 kts | 77° |
| 2026-04-24 03:54 | 40.40087 | 107.71873 | 36961 ft | 498 kts | 77° |
| 2026-04-24 03:54 | 40.41153 | 107.80857 | 36952 ft | 499 kts | 78° |
| 2026-04-24 03:55 | 40.42204 | 107.89791 | 36944 ft | 499 kts | 78° |
| 2026-04-24 03:55 | 40.43257 | 107.98787 | 36945 ft | 499 kts | 78° |
| 2026-04-24 03:56 | 40.44297 | 108.07785 | 36942 ft | 498 kts | 78° |
| 2026-04-24 03:56 | 40.45331 | 108.16769 | 36942 ft | 498 kts | 78° |
| 2026-04-24 03:57 | 40.46359 | 108.25759 | 36937 ft | 498 kts | 78° |
| 2026-04-24 03:57 | 40.47372 | 108.34695 | 36930 ft | 498 kts | 78° |
| 2026-04-24 03:58 | 40.48385 | 108.43690 | 36944 ft | 498 kts | 78° |
| 2026-04-24 03:58 | 40.49392 | 108.52690 | 36936 ft | 498 kts | 78° |
| 2026-04-24 03:59 | 40.50385 | 108.61642 | 36926 ft | 498 kts | 78° |
| 2026-04-24 03:59 | 40.51378 | 108.70652 | 36926 ft | 498 kts | 79° |
| 2026-04-24 04:00 | 40.52364 | 108.79667 | 36932 ft | 498 kts | 79° |
| 2026-04-24 04:00 | 40.53344 | 108.88691 | 36921 ft | 499 kts | 79° |
| 2026-04-24 04:01 | 40.54310 | 108.97652 | 36924 ft | 499 kts | 79° |
| 2026-04-24 04:01 | 40.55276 | 109.06688 | 36919 ft | 499 kts | 79° |
| 2026-04-24 04:02 | 40.56236 | 109.15730 | 36911 ft | 500 kts | 79° |
| 2026-04-24 04:02 | 40.57191 | 109.24791 | 36928 ft | 500 kts | 79° |
| 2026-04-24 04:03 | 40.58131 | 109.33787 | 36918 ft | 500 kts | 79° |
| 2026-04-24 04:03 | 40.59071 | 109.42850 | 36922 ft | 500 kts | 79° |
| 2026-04-24 04:04 | 40.60005 | 109.51920 | 36918 ft | 500 kts | 80° |
| 2026-04-24 04:04 | 40.60932 | 109.61000 | 36922 ft | 501 kts | 80° |
| 2026-04-24 04:05 | 40.61847 | 109.70030 | 36919 ft | 501 kts | 80° |
| 2026-04-24 04:05 | 40.62761 | 109.79132 | 36926 ft | 501 kts | 80° |
| 2026-04-24 04:06 | 40.63668 | 109.88231 | 36914 ft | 502 kts | 80° |
| 2026-04-24 04:06 | 40.64527 | 109.97363 | 36934 ft | 503 kts | 83° |
| 2026-04-24 04:07 | 40.64623 | 110.06536 | 36932 ft | 505 kts | 89° |
| 2026-04-24 04:07 | 40.64579 | 110.15786 | 36941 ft | 505 kts | 88° |
| 2026-04-24 04:08 | 40.64537 | 110.25038 | 36941 ft | 506 kts | 89° |
| 2026-04-24 04:08 | 40.64480 | 110.34308 | 36951 ft | 506 kts | 89° |
| 2026-04-24 04:09 | 40.64413 | 110.43521 | 36953 ft | 506 kts | 89° |
| 2026-04-24 04:09 | 40.64340 | 110.52796 | 36952 ft | 507 kts | 89° |
| 2026-04-24 04:10 | 40.64259 | 110.62076 | 36955 ft | 507 kts | 89° |
| 2026-04-24 04:10 | 40.64172 | 110.71349 | 36953 ft | 507 kts | 89° |
| 2026-04-24 04:11 | 40.64027 | 110.85198 | 36952 ft | 506 kts | 90° |
| 2026-04-24 04:11 | 40.63922 | 110.94469 | 36951 ft | 506 kts | 90° |
| 2026-04-24 04:12 | 40.63808 | 111.03738 | 36943 ft | 506 kts | 90° |
| 2026-04-24 04:12 | 40.63688 | 111.12996 | 36969 ft | 506 kts | 90° |
| 2026-04-24 04:13 | 40.63561 | 111.22215 | 36951 ft | 507 kts | 90° |
| 2026-04-24 04:13 | 40.63425 | 111.31496 | 36954 ft | 507 kts | 90° |
| 2026-04-24 04:14 | 40.63282 | 111.40771 | 36958 ft | 507 kts | 90° |
| 2026-04-24 04:14 | 40.63132 | 111.50055 | 36956 ft | 507 kts | 90° |
| 2026-04-24 04:15 | 40.62976 | 111.59267 | 36961 ft | 507 kts | 90° |
| 2026-04-24 04:15 | 40.62811 | 111.68549 | 36959 ft | 507 kts | 90° |
| 2026-04-24 04:16 | 40.62638 | 111.77830 | 36956 ft | 507 kts | 90° |
| 2026-04-24 04:16 | 40.62459 | 111.87102 | 36963 ft | 507 kts | 90° |
| 2026-04-24 04:17 | 40.62292 | 111.96386 | 36968 ft | 507 kts | 90° |
| 2026-04-24 04:17 | 40.62089 | 112.05611 | 36968 ft | 508 kts | 91° |
| 2026-04-24 04:18 | 40.61877 | 112.14895 | 36971 ft | 508 kts | 91° |
| 2026-04-24 04:18 | 40.61664 | 112.24191 | 36971 ft | 508 kts | 91° |
| 2026-04-24 04:19 | 40.61444 | 112.33496 | 36971 ft | 509 kts | 91° |
| 2026-04-24 04:19 | 40.61218 | 112.42749 | 36979 ft | 509 kts | 91° |
| 2026-04-24 04:20 | 40.60963 | 112.52062 | 36967 ft | 509 kts | 93° |
| 2026-04-24 04:20 | 40.60420 | 112.61357 | 36963 ft | 509 kts | 94° |
| 2026-04-24 04:21 | 40.59845 | 112.70636 | 36966 ft | 509 kts | 94° |
| 2026-04-24 04:21 | 40.59182 | 112.79850 | 36964 ft | 509 kts | 97° |
| 2026-04-24 04:22 | 40.58446 | 112.89125 | 36950 ft | 510 kts | 95° |
| 2026-04-24 04:22 | 40.57848 | 112.98426 | 36953 ft | 510 kts | 95° |
| 2026-04-24 04:23 | 40.57236 | 113.07727 | 36956 ft | 511 kts | 95° |
| 2026-04-24 04:23 | 40.56611 | 113.16973 | 36941 ft | 511 kts | 95° |
| 2026-04-24 04:24 | 40.55970 | 113.26291 | 36935 ft | 512 kts | 95° |
| 2026-04-24 04:24 | 40.55322 | 113.35618 | 36943 ft | 512 kts | 95° |
| 2026-04-24 04:25 | 40.54666 | 113.44950 | 36941 ft | 513 kts | 95° |
| 2026-04-24 04:25 | 40.54006 | 113.54219 | 36934 ft | 513 kts | 96° |
| 2026-04-24 04:26 | 40.53333 | 113.63576 | 36940 ft | 514 kts | 96° |
| 2026-04-24 04:26 | 40.52652 | 113.72925 | 36939 ft | 514 kts | 95° |
| 2026-04-24 04:27 | 40.51964 | 113.82280 | 36924 ft | 514 kts | 96° |
| 2026-04-24 04:27 | 40.51273 | 113.91569 | 36918 ft | 514 kts | 96° |
| 2026-04-24 04:28 | 40.50574 | 114.00909 | 36896 ft | 514 kts | 95° |
| 2026-04-24 04:28 | 40.50165 | 114.10278 | 36885 ft | 514 kts | 93° |
| 2026-04-24 04:29 | 40.49825 | 114.19645 | 36883 ft | 514 kts | 93° |
| 2026-04-24 04:29 | 40.49435 | 114.28966 | 36882 ft | 515 kts | 94° |
| 2026-04-24 04:30 | 40.49021 | 114.38357 | 36891 ft | 515 kts | 94° |
| 2026-04-24 04:30 | 40.48598 | 114.47758 | 36888 ft | 516 kts | 94° |
| 2026-04-24 04:31 | 40.48166 | 114.57167 | 36888 ft | 516 kts | 94° |
| 2026-04-24 04:31 | 40.47730 | 114.66518 | 36892 ft | 517 kts | 94° |
| 2026-04-24 04:32 | 40.47284 | 114.75936 | 36895 ft | 517 kts | 94° |
| 2026-04-24 04:32 | 40.46830 | 114.85351 | 36889 ft | 516 kts | 94° |
| 2026-04-24 04:33 | 40.46369 | 114.94746 | 36879 ft | 516 kts | 94° |
| 2026-04-24 04:33 | 40.45903 | 115.04087 | 36879 ft | 515 kts | 94° |
| 2026-04-24 04:34 | 40.45427 | 115.13465 | 36878 ft | 515 kts | 94° |
| 2026-04-24 04:34 | 40.44944 | 115.22844 | 36868 ft | 514 kts | 94° |
| 2026-04-24 04:35 | 40.44454 | 115.32216 | 36869 ft | 515 kts | 94° |
| 2026-04-24 04:35 | 40.43960 | 115.41532 | 36860 ft | 515 kts | 95° |
| 2026-04-24 04:36 | 40.43454 | 115.50911 | 36869 ft | 516 kts | 95° |
| 2026-04-24 04:36 | 40.42830 | 115.60298 | 36875 ft | 516 kts | 97° |
| 2026-04-24 04:37 | 40.42026 | 115.69674 | 36875 ft | 517 kts | 97° |
| 2026-04-24 04:37 | 40.41241 | 115.79057 | 36882 ft | 517 kts | 97° |
| 2026-04-24 04:38 | 40.40473 | 115.88373 | 36885 ft | 517 kts | 97° |
| 2026-04-24 04:38 | 40.39694 | 115.97764 | 36880 ft | 517 kts | 97° |
| 2026-04-24 04:39 | 40.38907 | 116.07151 | 36880 ft | 518 kts | 97° |
| 2026-04-24 04:39 | 40.38111 | 116.16552 | 36893 ft | 519 kts | 97° |
| 2026-04-24 04:40 | 40.37313 | 116.25892 | 36893 ft | 519 kts | 97° |
| 2026-04-24 04:40 | 40.36502 | 116.35291 | 36901 ft | 519 kts | 97° |
| 2026-04-24 04:41 | 40.35683 | 116.44688 | 36904 ft | 519 kts | 97° |
| 2026-04-24 04:41 | 40.34856 | 116.54083 | 36901 ft | 518 kts | 97° |
| 2026-04-24 04:42 | 40.33007 | 116.63038 | 36889 ft | 512 kts | 119° |
| 2026-04-24 04:42 | 40.28917 | 116.70519 | 36887 ft | 502 kts | 140° |
| 2026-04-24 04:43 | 40.23279 | 116.75680 | 36884 ft | 491 kts | 160° |
| 2026-04-24 04:43 | 40.16811 | 116.78056 | 36888 ft | 479 kts | 176° |
| 2026-04-24 04:44 | 40.10256 | 116.79369 | 36881 ft | 481 kts | 175° |
| 2026-04-24 04:44 | 40.03644 | 116.80718 | 36894 ft | 481 kts | 175° |
| 2026-04-24 04:45 | 39.97026 | 116.82046 | 36894 ft | 481 kts | 175° |
| 2026-04-24 04:45 | 39.90407 | 116.83365 | 36897 ft | 481 kts | 175° |
| 2026-04-24 04:46 | 39.83831 | 116.84672 | 36898 ft | 481 kts | 175° |
| 2026-04-24 04:46 | 39.77214 | 116.85993 | 36878 ft | 481 kts | 175° |
| 2026-04-24 04:47 | 39.70614 | 116.87369 | 36905 ft | 481 kts | 175° |
| 2026-04-24 04:47 | 39.64009 | 116.88744 | 36895 ft | 480 kts | 175° |
| 2026-04-24 04:48 | 39.57450 | 116.90100 | 36885 ft | 480 kts | 175° |
| 2026-04-24 04:48 | 39.50852 | 116.91459 | 36891 ft | 480 kts | 175° |
| 2026-04-24 04:49 | 39.44256 | 116.92816 | 36890 ft | 480 kts | 175° |
| 2026-04-24 04:49 | 39.37704 | 116.94161 | 36891 ft | 480 kts | 175° |
| 2026-04-24 04:50 | 39.31117 | 116.95511 | 36891 ft | 480 kts | 175° |
| 2026-04-24 04:50 | 39.24544 | 116.97042 | 36884 ft | 483 kts | 167° |
| 2026-04-24 04:51 | 39.18457 | 117.00869 | 36883 ft | 495 kts | 147° |
| 2026-04-24 04:51 | 39.15846 | 117.03790 | 36883 ft | 500 kts | 136° |
| 2026-04-24 04:51 | 39.13647 | 117.07286 | 36889 ft | 505 kts | 126° |
| 2026-04-24 04:52 | 39.11960 | 117.11202 | 36887 ft | 509 kts | 115° |
| 2026-04-24 04:52 | 39.10807 | 117.15525 | 36887 ft | 513 kts | 105° |
| 2026-04-24 04:52 | 39.09584 | 117.24579 | 36908 ft | 514 kts | 101° |
| 2026-04-24 04:53 | 39.08369 | 117.33655 | 36913 ft | 515 kts | 101° |
| 2026-04-24 04:53 | 39.07791 | 117.42853 | 36916 ft | 517 kts | 91° |
| 2026-04-24 04:54 | 39.07717 | 117.52032 | 36915 ft | 517 kts | 91° |
| 2026-04-24 04:54 | 39.07608 | 117.61291 | 36919 ft | 517 kts | 92° |
| 2026-04-24 04:55 | 39.07493 | 117.70538 | 36915 ft | 517 kts | 92° |
| 2026-04-24 04:55 | 39.07372 | 117.79793 | 36920 ft | 517 kts | 92° |
| 2026-04-24 04:56 | 39.07245 | 117.88979 | 36921 ft | 517 kts | 92° |
| 2026-04-24 04:56 | 39.07111 | 117.98221 | 36918 ft | 516 kts | 92° |
| 2026-04-24 04:57 | 39.06426 | 118.07384 | 36916 ft | 514 kts | 103° |
| 2026-04-24 04:57 | 39.04975 | 118.16380 | 36916 ft | 514 kts | 103° |
| 2026-04-24 04:58 | 39.03562 | 118.25319 | 36925 ft | 514 kts | 103° |
| 2026-04-24 04:58 | 39.02128 | 118.34328 | 36933 ft | 514 kts | 103° |
| 2026-04-24 04:59 | 39.00683 | 118.43337 | 36937 ft | 514 kts | 103° |
| 2026-04-24 04:59 | 38.99229 | 118.52345 | 36939 ft | 515 kts | 103° |
| 2026-04-24 05:00 | 38.97779 | 118.61291 | 36943 ft | 515 kts | 103° |
| 2026-04-24 05:00 | 38.96313 | 118.70285 | 36947 ft | 515 kts | 103° |
| 2026-04-24 05:01 | 38.94838 | 118.79289 | 36949 ft | 515 kts | 103° |
| 2026-04-24 05:01 | 38.93357 | 118.88284 | 36949 ft | 515 kts | 103° |
| 2026-04-24 05:02 | 38.91879 | 118.97214 | 36940 ft | 514 kts | 103° |
| 2026-04-24 05:02 | 38.90387 | 119.06181 | 36950 ft | 514 kts | 103° |
| 2026-04-24 05:03 | 38.88886 | 119.15149 | 36953 ft | 514 kts | 103° |
| 2026-04-24 05:03 | 38.87379 | 119.24109 | 36952 ft | 513 kts | 103° |
| 2026-04-24 05:04 | 38.85876 | 119.32999 | 36949 ft | 513 kts | 103° |
| 2026-04-24 05:04 | 38.84357 | 119.41943 | 36955 ft | 513 kts | 103° |
| 2026-04-24 05:05 | 38.82832 | 119.50875 | 36953 ft | 513 kts | 103° |
| 2026-04-24 05:05 | 38.81300 | 119.59808 | 36959 ft | 513 kts | 103° |
| 2026-04-24 05:06 | 38.79771 | 119.68678 | 36961 ft | 513 kts | 103° |
| 2026-04-24 05:06 | 38.78227 | 119.77595 | 36962 ft | 513 kts | 103° |
| 2026-04-24 05:07 | 38.76685 | 119.86522 | 36964 ft | 513 kts | 103° |
| 2026-04-24 05:07 | 38.75220 | 119.95467 | 36966 ft | 513 kts | 103° |
| 2026-04-24 05:08 | 38.72704 | 120.03920 | 36964 ft | 508 kts | 121° |
| 2026-04-24 05:08 | 38.69104 | 120.11623 | 36965 ft | 507 kts | 123° |
| 2026-04-24 05:09 | 38.65169 | 120.19079 | 36969 ft | 504 kts | 135° |
| 2026-04-24 05:09 | 38.62607 | 120.22096 | 36968 ft | 499 kts | 146° |
| 2026-04-24 05:09 | 38.59873 | 120.24825 | 36961 ft | 501 kts | 139° |
| 2026-04-24 05:10 | 38.57535 | 120.28146 | 36965 ft | 505 kts | 128° |
| 2026-04-24 05:10 | 38.55718 | 120.32007 | 36975 ft | 509 kts | 116° |
| 2026-04-24 05:10 | 38.54513 | 120.36192 | 36975 ft | 512 kts | 105° |
| 2026-04-24 05:10 | 38.53928 | 120.40678 | 36971 ft | 513 kts | 94° |
| 2026-04-24 05:11 | 38.54013 | 120.45232 | 36983 ft | 514 kts | 82° |
| 2026-04-24 05:11 | 38.54662 | 120.49713 | 36977 ft | 513 kts | 78° |
| 2026-04-24 05:11 | 38.55139 | 120.58791 | 36983 ft | 514 kts | 95° |
| 2026-04-24 05:12 | 38.54104 | 120.67817 | 36993 ft | 514 kts | 102° |
| 2026-04-24 05:12 | 38.52652 | 120.76696 | 37002 ft | 514 kts | 103° |
| 2026-04-24 05:13 | 38.50426 | 120.90111 | 37004 ft | 515 kts | 103° |
| 2026-04-24 05:14 | 38.48951 | 120.99049 | 36999 ft | 515 kts | 103° |
| 2026-04-24 05:14 | 38.47472 | 121.07987 | 36999 ft | 514 kts | 103° |
| 2026-04-24 05:15 | 38.45998 | 121.16853 | 36997 ft | 514 kts | 103° |
| 2026-04-24 05:15 | 38.44547 | 121.25780 | 36982 ft | 514 kts | 102° |
| 2026-04-24 05:16 | 38.43112 | 121.34701 | 36985 ft | 513 kts | 102° |
| 2026-04-24 05:16 | 38.41681 | 121.43550 | 36983 ft | 513 kts | 102° |
| 2026-04-24 05:17 | 38.40219 | 121.52454 | 36986 ft | 513 kts | 103° |
| 2026-04-24 05:17 | 38.38734 | 121.61336 | 36987 ft | 513 kts | 103° |
| 2026-04-24 05:18 | 38.37242 | 121.70230 | 36988 ft | 513 kts | 103° |
| 2026-04-24 05:18 | 38.35746 | 121.79118 | 36994 ft | 513 kts | 103° |
| 2026-04-24 05:19 | 38.34255 | 121.87938 | 36997 ft | 513 kts | 103° |
| 2026-04-24 05:19 | 38.32745 | 121.96820 | 37001 ft | 513 kts | 103° |
| 2026-04-24 05:20 | 38.31228 | 122.05702 | 37002 ft | 513 kts | 103° |
| 2026-04-24 05:20 | 38.29715 | 122.14523 | 37012 ft | 513 kts | 103° |
| 2026-04-24 05:21 | 38.28186 | 122.23391 | 37013 ft | 513 kts | 103° |
| 2026-04-24 05:21 | 38.26785 | 122.32299 | 37022 ft | 514 kts | 101° |
| 2026-04-24 05:22 | 38.25296 | 122.41171 | 37018 ft | 512 kts | 111° |
| 2026-04-24 05:22 | 38.21947 | 122.49009 | 37013 ft | 507 kts | 130° |
| 2026-04-24 05:23 | 38.17119 | 122.55472 | 37015 ft | 504 kts | 137° |
| 2026-04-24 05:23 | 38.12189 | 122.61823 | 37020 ft | 505 kts | 137° |
| 2026-04-24 05:24 | 38.07258 | 122.68186 | 37022 ft | 505 kts | 136° |
| 2026-04-24 05:24 | 38.02354 | 122.74573 | 37027 ft | 506 kts | 136° |
| 2026-04-24 05:25 | 37.97469 | 122.80917 | 37030 ft | 506 kts | 136° |
| 2026-04-24 05:25 | 37.92543 | 122.87293 | 37038 ft | 506 kts | 136° |
| 2026-04-24 05:26 | 37.87611 | 122.93661 | 37030 ft | 506 kts | 136° |
| 2026-04-24 05:26 | 37.82709 | 122.99977 | 37031 ft | 506 kts | 136° |
| 2026-04-24 05:27 | 37.77776 | 123.06321 | 37039 ft | 506 kts | 137° |
| 2026-04-24 05:27 | 37.72831 | 123.12667 | 37041 ft | 507 kts | 137° |
| 2026-04-24 05:28 | 37.67879 | 123.19011 | 37042 ft | 507 kts | 137° |
| 2026-04-24 05:28 | 37.62921 | 123.25348 | 37045 ft | 507 kts | 137° |
| 2026-04-24 05:29 | 37.57996 | 123.31635 | 37054 ft | 508 kts | 136° |
| 2026-04-24 05:29 | 37.53538 | 123.38542 | 37054 ft | 510 kts | 128° |
| 2026-04-24 05:30 | 37.49298 | 123.45704 | 37051 ft | 510 kts | 129° |
| 2026-04-24 05:30 | 37.45064 | 123.52801 | 37057 ft | 510 kts | 129° |
| 2026-04-24 05:31 | 37.40792 | 123.59942 | 37060 ft | 511 kts | 129° |
| 2026-04-24 05:31 | 37.36513 | 123.67080 | 37063 ft | 511 kts | 129° |
| 2026-04-24 05:32 | 37.32227 | 123.74214 | 37060 ft | 511 kts | 129° |
| 2026-04-24 05:32 | 37.27963 | 123.81298 | 37063 ft | 512 kts | 129° |
| 2026-04-24 05:33 | 37.23669 | 123.88415 | 37062 ft | 512 kts | 129° |
| 2026-04-24 05:33 | 37.19510 | 123.95672 | 37066 ft | 514 kts | 120° |
| 2026-04-24 05:34 | 37.17192 | 124.04135 | 37057 ft | 517 kts | 98° |
| 2026-04-24 05:34 | 37.16969 | 124.08632 | 37061 ft | 518 kts | 88° |
| 2026-04-24 05:34 | 37.17336 | 124.17645 | 37065 ft | 518 kts | 87° |
| 2026-04-24 05:35 | 37.17663 | 124.26606 | 37062 ft | 519 kts | 88° |
| 2026-04-24 05:35 | 37.17890 | 124.35660 | 37068 ft | 520 kts | 88° |
| 2026-04-24 05:36 | 37.18096 | 124.44727 | 37074 ft | 520 kts | 88° |
| 2026-04-24 05:36 | 37.18301 | 124.53741 | 37086 ft | 521 kts | 88° |
| 2026-04-24 05:37 | 37.18504 | 124.62818 | 37084 ft | 521 kts | 88° |
| 2026-04-24 05:37 | 37.18701 | 124.71883 | 37082 ft | 520 kts | 88° |
| 2026-04-24 05:38 | 37.18891 | 124.80955 | 37071 ft | 520 kts | 89° |
| 2026-04-24 05:38 | 37.19072 | 124.89967 | 37072 ft | 520 kts | 89° |
| 2026-04-24 05:39 | 37.19248 | 124.99041 | 37073 ft | 520 kts | 89° |
| 2026-04-24 05:39 | 37.19417 | 125.08120 | 37082 ft | 521 kts | 89° |
| 2026-04-24 05:40 | 37.19578 | 125.17201 | 37083 ft | 521 kts | 89° |
| 2026-04-24 05:40 | 37.19732 | 125.26208 | 37070 ft | 521 kts | 89° |
| 2026-04-24 05:41 | 37.19880 | 125.35287 | 37062 ft | 521 kts | 89° |
| 2026-04-24 05:41 | 37.19955 | 125.44385 | 37047 ft | 521 kts | 94° |
| 2026-04-24 05:42 | 37.19586 | 125.48876 | 36786 ft | 517 kts | 101° |
| 2026-04-24 05:42 | 37.18780 | 125.53263 | 36157 ft | 515 kts | 109° |
| 2026-04-24 05:42 | 37.17598 | 125.57481 | 35507 ft | 512 kts | 111° |
| 2026-04-24 05:42 | 37.16390 | 125.61689 | 34793 ft | 512 kts | 110° |
| 2026-04-24 05:43 | 37.15218 | 125.65822 | 34114 ft | 510 kts | 110° |
| 2026-04-24 05:43 | 37.14033 | 125.70004 | 33256 ft | 509 kts | 110° |
| 2026-04-24 05:43 | 37.12851 | 125.74168 | 32513 ft | 505 kts | 109° |
| 2026-04-24 05:43 | 37.11729 | 125.78307 | 31879 ft | 499 kts | 105° |
| 2026-04-24 05:44 | 37.10969 | 125.82509 | 31343 ft | 491 kts | 98° |
| 2026-04-24 05:44 | 37.10559 | 125.86714 | 30707 ft | 482 kts | 95° |
| 2026-04-24 05:44 | 37.10215 | 125.90792 | 30054 ft | 471 kts | 95° |
| 2026-04-24 05:44 | 37.09861 | 125.94833 | 29194 ft | 463 kts | 95° |
| 2026-04-24 05:45 | 37.09509 | 125.98812 | 28288 ft | 457 kts | 95° |
| 2026-04-24 05:45 | 37.09257 | 126.02698 | 27939 ft | 438 kts | 89° |
| 2026-04-24 05:45 | 37.09296 | 126.06420 | 27693 ft | 418 kts | 88° |
| 2026-04-24 05:45 | 37.09340 | 126.09976 | 27489 ft | 399 kts | 88° |
| 2026-04-24 05:46 | 37.09376 | 126.13362 | 27300 ft | 379 kts | 85° |
| 2026-04-24 05:46 | 37.09837 | 126.16506 | 27116 ft | 357 kts | 66° |
| 2026-04-24 05:46 | 37.11017 | 126.19079 | 26887 ft | 338 kts | 46° |
| 2026-04-24 05:46 | 37.12797 | 126.20914 | 26339 ft | 331 kts | 26° |
| 2026-04-24 05:47 | 37.14972 | 126.21762 | 25707 ft | 328 kts | 4° |
| 2026-04-24 05:47 | 37.17216 | 126.21476 | 25198 ft | 325 kts | 341° |
| 2026-04-24 05:47 | 37.19194 | 126.20120 | 24887 ft | 326 kts | 320° |
| 2026-04-24 05:47 | 37.20667 | 126.17954 | 24650 ft | 330 kts | 301° |
| 2026-04-24 05:48 | 37.21600 | 126.15318 | 24448 ft | 333 kts | 289° |
| 2026-04-24 05:48 | 37.22164 | 126.12489 | 24387 ft | 334 kts | 282° |
| 2026-04-24 05:48 | 37.22543 | 126.09638 | 24288 ft | 330 kts | 280° |
| 2026-04-24 05:48 | 37.22851 | 126.06828 | 24020 ft | 329 kts | 279° |
| 2026-04-24 05:49 | 37.23148 | 126.03989 | 23732 ft | 327 kts | 279° |
| 2026-04-24 05:49 | 37.23447 | 126.01163 | 23428 ft | 325 kts | 279° |
| 2026-04-24 05:49 | 37.23750 | 125.98365 | 23137 ft | 322 kts | 279° |
| 2026-04-24 05:49 | 37.23940 | 125.95578 | 22817 ft | 321 kts | 267° |
| 2026-04-24 05:50 | 37.23442 | 125.92869 | 22383 ft | 320 kts | 245° |
| 2026-04-24 05:50 | 37.22226 | 125.90553 | 21842 ft | 318 kts | 224° |
| 2026-04-24 05:50 | 37.20478 | 125.88927 | 21330 ft | 313 kts | 204° |
| 2026-04-24 05:50 | 37.18450 | 125.88134 | 20815 ft | 309 kts | 185° |
| 2026-04-24 05:51 | 37.16329 | 125.88216 | 20293 ft | 304 kts | 165° |
| 2026-04-24 05:51 | 37.14378 | 125.89140 | 19770 ft | 300 kts | 147° |
| 2026-04-24 05:51 | 37.12788 | 125.90779 | 19262 ft | 295 kts | 128° |
| 2026-04-24 05:51 | 37.11709 | 125.92928 | 18760 ft | 290 kts | 110° |
| 2026-04-24 05:52 | 37.11220 | 125.95356 | 18243 ft | 286 kts | 95° |
| 2026-04-24 05:52 | 37.10988 | 125.97825 | 17715 ft | 284 kts | 96° |
| 2026-04-24 05:52 | 37.10722 | 126.00221 | 17248 ft | 280 kts | 97° |
| 2026-04-24 05:52 | 37.10442 | 126.02618 | 16775 ft | 277 kts | 96° |
| 2026-04-24 05:53 | 37.10166 | 126.04999 | 16208 ft | 276 kts | 96° |
| 2026-04-24 05:53 | 37.09893 | 126.07375 | 15680 ft | 275 kts | 96° |
| 2026-04-24 05:53 | 37.09626 | 126.09731 | 15198 ft | 271 kts | 96° |
| 2026-04-24 05:53 | 37.09364 | 126.12053 | 14723 ft | 268 kts | 94° |
| 2026-04-24 05:54 | 37.09453 | 126.14332 | 14148 ft | 260 kts | 68° |
| 2026-04-24 05:54 | 37.10330 | 126.16255 | 13576 ft | 253 kts | 43° |
| 2026-04-24 05:54 | 37.11745 | 126.17501 | 12973 ft | 249 kts | 20° |
| 2026-04-24 05:54 | 37.13408 | 126.17903 | 12356 ft | 248 kts | 357° |
| 2026-04-24 05:55 | 37.15079 | 126.17409 | 11747 ft | 249 kts | 333° |
| 2026-04-24 05:55 | 37.16440 | 126.16084 | 11183 ft | 250 kts | 309° |
| 2026-04-24 05:55 | 37.17238 | 126.14162 | 10625 ft | 251 kts | 284° |
| 2026-04-24 05:55 | 37.17479 | 126.11997 | 10093 ft | 251 kts | 278° |
| 2026-04-24 05:56 | 37.17704 | 126.09837 | 9589 ft | 249 kts | 279° |
| 2026-04-24 05:56 | 37.17949 | 126.07698 | 9085 ft | 247 kts | 279° |
| 2026-04-24 05:56 | 37.18194 | 126.05575 | 8709 ft | 243 kts | 278° |
| 2026-04-24 05:56 | 37.18428 | 126.03525 | 8595 ft | 235 kts | 278° |
| 2026-04-24 05:57 | 37.18508 | 126.01501 | 8182 ft | 240 kts | 260° |
| 2026-04-24 05:57 | 37.17846 | 125.99565 | 7677 ft | 248 kts | 230° |
| 2026-04-24 05:57 | 37.16477 | 125.98289 | 7320 ft | 247 kts | 199° |
| 2026-04-24 05:57 | 37.14800 | 125.98042 | 7032 ft | 244 kts | 169° |
| 2026-04-24 05:58 | 37.13276 | 125.98867 | 6733 ft | 240 kts | 139° |
| 2026-04-24 05:58 | 37.12303 | 126.00535 | 6450 ft | 239 kts | 109° |
| 2026-04-24 05:58 | 37.12083 | 126.02578 | 6161 ft | 238 kts | 88° |
| 2026-04-24 05:58 | 37.12271 | 126.04630 | 5894 ft | 238 kts | 81° |
| 2026-04-24 05:59 | 37.12564 | 126.06637 | 5615 ft | 237 kts | 80° |
| 2026-04-24 05:59 | 37.12863 | 126.08664 | 5335 ft | 236 kts | 81° |
| 2026-04-24 05:59 | 37.13136 | 126.10687 | 5066 ft | 235 kts | 81° |
| 2026-04-24 05:59 | 37.13388 | 126.12703 | 4818 ft | 234 kts | 82° |
| 2026-04-24 06:00 | 37.13628 | 126.14715 | 4674 ft | 233 kts | 82° |
| 2026-04-24 06:00 | 37.13863 | 126.16729 | 4558 ft | 232 kts | 82° |
| 2026-04-24 06:00 | 37.14096 | 126.18732 | 4448 ft | 232 kts | 82° |
| 2026-04-24 06:00 | 37.14328 | 126.20734 | 4331 ft | 232 kts | 82° |
| 2026-04-24 06:01 | 37.14557 | 126.22709 | 4223 ft | 232 kts | 82° |
| 2026-04-24 06:01 | 37.14788 | 126.24703 | 4112 ft | 231 kts | 82° |
| 2026-04-24 06:01 | 37.15019 | 126.26701 | 3988 ft | 231 kts | 82° |
| 2026-04-24 06:01 | 37.15249 | 126.28686 | 3885 ft | 230 kts | 82° |
| 2026-04-24 06:02 | 37.15478 | 126.30676 | 3694 ft | 231 kts | 82° |
| 2026-04-24 06:02 | 37.15708 | 126.32666 | 3508 ft | 229 kts | 82° |
| 2026-04-24 06:02 | 37.15934 | 126.34635 | 3462 ft | 229 kts | 82° |
| 2026-04-24 06:02 | 37.16161 | 126.36611 | 3371 ft | 229 kts | 82° |
| 2026-04-24 06:03 | 37.16387 | 126.38582 | 3282 ft | 228 kts | 82° |
| 2026-04-24 06:03 | 37.16608 | 126.40516 | 3201 ft | 228 kts | 82° |
| 2026-04-24 06:03 | 37.16833 | 126.42481 | 3119 ft | 227 kts | 82° |
| 2026-04-24 06:03 | 37.17057 | 126.44442 | 3037 ft | 227 kts | 82° |
| 2026-04-24 06:04 | 37.17281 | 126.46403 | 2944 ft | 227 kts | 82° |
| 2026-04-24 06:04 | 37.17504 | 126.48363 | 2859 ft | 227 kts | 82° |
| 2026-04-24 06:04 | 37.17727 | 126.50315 | 2775 ft | 226 kts | 83° |
| 2026-04-24 06:04 | 37.17949 | 126.52270 | 2693 ft | 227 kts | 83° |
| 2026-04-24 06:05 | 37.18262 | 126.54171 | 2617 ft | 225 kts | 71° |
| 2026-04-24 06:05 | 37.19028 | 126.55875 | 2515 ft | 227 kts | 54° |
| 2026-04-24 06:05 | 37.19976 | 126.57465 | 2456 ft | 228 kts | 55° |
| 2026-04-24 06:05 | 37.20897 | 126.59074 | 2368 ft | 226 kts | 56° |
| 2026-04-24 06:06 | 37.21834 | 126.60630 | 2319 ft | 222 kts | 45° |
| 2026-04-24 06:06 | 37.23174 | 126.61457 | 2225 ft | 215 kts | 7° |
| 2026-04-24 06:06 | 37.24627 | 126.61248 | 2046 ft | 208 kts | 341° |
| 2026-04-24 06:06 | 37.25868 | 126.60481 | 2000 ft | 197 kts | 330° |
| 2026-04-24 06:07 | 37.27023 | 126.59558 | 1978 ft | 197 kts | 327° |
| 2026-04-24 06:07 | 37.28143 | 126.58567 | 1976 ft | 198 kts | 325° |
| 2026-04-24 06:07 | 37.29254 | 126.57584 | 1975 ft | 197 kts | 326° |
| 2026-04-24 06:07 | 37.30373 | 126.56591 | 1979 ft | 197 kts | 326° |
| 2026-04-24 06:08 | 37.31489 | 126.55601 | 1992 ft | 196 kts | 325° |
| 2026-04-24 06:08 | 37.32602 | 126.54612 | 1997 ft | 197 kts | 325° |
| 2026-04-24 06:08 | 37.33718 | 126.53621 | 1997 ft | 196 kts | 325° |
| 2026-04-24 06:08 | 37.34827 | 126.52635 | 1998 ft | 189 kts | 325° |
| 2026-04-24 06:09 | 37.35861 | 126.51716 | 1996 ft | 177 kts | 325° |
| 2026-04-24 06:09 | 37.36838 | 126.50847 | 1860 ft | 173 kts | 325° |
| 2026-04-24 06:09 | 37.37808 | 126.49985 | 1631 ft | 169 kts | 325° |
| 2026-04-24 06:09 | 37.38754 | 126.49141 | 1395 ft | 166 kts | 324° |
| 2026-04-24 06:10 | 37.39693 | 126.48307 | 1176 ft | 165 kts | 324° |
| 2026-04-24 06:10 | 37.40626 | 126.47475 | 960 ft | 163 kts | 324° |
| 2026-04-24 06:10 | 37.41544 | 126.46660 | 739 ft | 160 kts | 324° |
| 2026-04-24 06:11 | 37.43320 | 126.45066 | 332 ft | 155 kts | 323° |
| 2026-04-24 06:11 | 37.44184 | 126.44299 | 141 ft | 154 kts | 323° |
| 2026-04-24 06:11 | 37.45043 | 126.43564 | 39 ft | 135 kts | 320° |
| 2026-04-24 06:11 | 37.45663 | 126.42997 | 38 ft | 89 kts | 324° |
| 2026-04-24 06:12 | 37.46043 | 126.42658 | 38 ft | 48 kts | 324° |
| 2026-04-24 06:12 | 37.46247 | 126.42481 | 38 ft | 27 kts | 329° |
| 2026-04-24 06:12 | 37.46408 | 126.42403 | 38 ft | 23 kts | 351° |
| 2026-04-24 06:12 | 37.46519 | 126.42396 | 38 ft | 10 kts | 31° |
| 2026-04-24 06:13 | 37.46533 | 126.42471 | 38 ft | 11 kts | 124° |
| 2026-04-24 06:13 | 37.46466 | 126.42548 | 38 ft | 16 kts | 144° |
| 2026-04-24 06:13 | 37.46367 | 126.42638 | 38 ft | 19 kts | 144° |
| 2026-04-24 06:13 | 37.46249 | 126.42745 | 38 ft | 22 kts | 144° |
| 2026-04-24 06:14 | 37.46113 | 126.42863 | 38 ft | 25 kts | 146° |
| 2026-04-24 06:14 | 37.45967 | 126.42993 | 36 ft | 27 kts | 144° |
| 2026-04-24 06:14 | 37.45824 | 126.43122 | 38 ft | 24 kts | 144° |
| 2026-04-24 06:14 | 37.45686 | 126.43246 | 38 ft | 25 kts | 144° |
| 2026-04-24 06:15 | 37.45538 | 126.43377 | 38 ft | 27 kts | 145° |
| 2026-04-24 06:15 | 37.45384 | 126.43513 | 38 ft | 28 kts | 145° |
| 2026-04-24 06:15 | 37.45225 | 126.43657 | 38 ft | 28 kts | 144° |
| 2026-04-24 06:15 | 37.45062 | 126.43801 | 38 ft | 28 kts | 145° |
| 2026-04-24 06:16 | 37.44956 | 126.43895 | 38 ft | 11 kts | 145° |
| 2026-04-24 06:16 | 37.44907 | 126.43960 | 38 ft | 9 kts | 87° |
| 2026-04-24 06:16 | 37.44945 | 126.44047 | 38 ft | 14 kts | 54° |
| 2026-04-24 06:16 | 37.45007 | 126.44154 | 38 ft | 15 kts | 53° |
| 2026-04-24 06:17 | 37.45024 | 126.44233 | 38 ft | 15 kts | 107° |
| 2026-04-24 06:17 | 37.44946 | 126.44383 | 38 ft | 18 kts | 126° |
| 2026-04-24 06:17 | 37.44866 | 126.44522 | 38 ft | 21 kts | 126° |
| 2026-04-24 06:17 | 37.44815 | 126.44599 | 38 ft | 7 kts | 153° |
| 2026-04-24 06:18 | 37.44781 | 126.44618 | 38 ft | 6 kts | 131° |
| 2026-04-24 06:18 | 37.44764 | 126.44654 | 38 ft | 7 kts | 111° |
| 2026-04-24 06:18 | 37.44752 | 126.44698 | 38 ft | 3 kts | 109° |
| 2026-04-24 06:18 | 37.44747 | 126.44717 | 38 ft | 4 kts | 108° |
| 2026-04-24 06:19 | 37.44744 | 126.44727 | 38 ft | 1 kts | 108° |